<?xml version='1.0' encoding='UTF-8'?><gpx version="1.1" creator="JPX - https://github.com/jenetics/jpx" xmlns="http://www.topografix.com/GPX/1/1"><trk><trkseg><trkpt lat="43.59009762032693" lon="11.313906127632903"><ele>222.99999999999997</ele><time>2026-03-27T19:13:37.002Z</time></trkpt><trkpt lat="43.59015253551623" lon="11.313862710382242"><ele>223.0</ele><time>2026-03-27T19:13:39.002Z</time></trkpt><trkpt lat="43.59023823603215" lon="11.313939028287413"><ele>223.0</ele><time>2026-03-27T19:13:42.001Z</time></trkpt><trkpt lat="43.59032815709445" lon="11.31401734482133"><ele>223.0</ele><time>2026-03-27T19:13:44.001Z</time></trkpt><trkpt lat="43.590426062590886" lon="11.314055457014025"><ele>222.99999999999997</ele><time>2026-03-27T19:13:45.001Z</time></trkpt><trkpt lat="43.59049931539634" lon="11.314065591046015"><ele>223.0</ele><time>2026-03-27T19:13:46.001Z</time></trkpt><trkpt lat="43.59056213136601" lon="11.314430504216627"><ele>222.83333333333331</ele><time>2026-03-27T19:13:47.001Z</time></trkpt><trkpt lat="43.590694114098035" lon="11.314444518543649"><ele>222.66666666666666</ele><time>2026-03-27T19:13:49.001Z</time></trkpt><trkpt lat="43.59075677849823" lon="11.314459879817907"><ele>222.5</ele><time>2026-03-27T19:13:50.001Z</time></trkpt><trkpt lat="43.59084351047119" lon="11.314479185633834"><ele>222.33333333333331</ele><time>2026-03-27T19:13:51.001Z</time></trkpt><trkpt lat="43.59091423291649" lon="11.314500494755626"><ele>222.16666666666666</ele><time>2026-03-27T19:13:52.001Z</time></trkpt><trkpt lat="43.59097606358164" lon="11.314522062236042"><ele>222.0</ele><time>2026-03-27T19:13:53.001Z</time></trkpt><trkpt lat="43.59109453574788" lon="11.314566582641385"><ele>222.0</ele><time>2026-03-27T19:13:55.001Z</time></trkpt><trkpt lat="43.59115722913781" lon="11.314593167911054"><ele>222.0</ele><time>2026-03-27T19:13:56.001Z</time></trkpt><trkpt lat="43.591222378410166" lon="11.314620398111437"><ele>222.0</ele><time>2026-03-27T19:13:57.001Z</time></trkpt><trkpt lat="43.59128614075095" lon="11.31464704869263"><ele>222.0</ele><time>2026-03-27T19:13:58.001Z</time></trkpt><trkpt lat="43.591381588051085" lon="11.314662079482655"><ele>222.0</ele><time>2026-03-27T19:14:00Z</time></trkpt><trkpt lat="43.591491236291716" lon="11.314677150063023"><ele>222.0</ele><time>2026-03-27T19:14:02Z</time></trkpt><trkpt lat="43.59189688579661" lon="11.313929363090852"><ele>221.8</ele><time>2026-03-27T19:14:05Z</time></trkpt><trkpt lat="43.59196184883958" lon="11.313904497723478"><ele>221.6</ele><time>2026-03-27T19:14:06Z</time></trkpt><trkpt lat="43.59202634621186" lon="11.313871782269826"><ele>221.40000000000003</ele><time>2026-03-27T19:14:07Z</time></trkpt><trkpt lat="43.592152524588904" lon="11.313843678536678"><ele>221.20000000000002</ele><time>2026-03-27T19:14:09Z</time></trkpt><trkpt lat="43.59221884770098" lon="11.313825128919722"><ele>221.0</ele><time>2026-03-27T19:14:10Z</time></trkpt><trkpt lat="43.592338000647956" lon="11.313789555385382"><ele>220.8</ele><time>2026-03-27T19:14:12Z</time></trkpt><trkpt lat="43.592434752787184" lon="11.314046454645794"><ele>220.60000000000002</ele><time>2026-03-27T19:14:13Z</time></trkpt><trkpt lat="43.59250070461663" lon="11.314031636353144"><ele>220.4</ele><time>2026-03-27T19:14:14Z</time></trkpt><trkpt lat="43.59257668322318" lon="11.314012461488435"><ele>220.2</ele><time>2026-03-27T19:14:15Z</time></trkpt><trkpt lat="43.59264589008946" lon="11.31399418391492"><ele>220.0</ele><time>2026-03-27T19:14:16Z</time></trkpt><trkpt lat="43.59272937070689" lon="11.313977082097994"><ele>220.0</ele><time>2026-03-27T19:14:18Z</time></trkpt><trkpt lat="43.59280457044653" lon="11.313977307655334"><ele>220.0</ele><time>2026-03-27T19:14:21Z</time></trkpt><trkpt lat="43.59287867969678" lon="11.313991563161556"><ele>220.0</ele><time>2026-03-27T19:14:25Z</time></trkpt><trkpt lat="43.59296555977749" lon="11.31402611622709"><ele>220.0</ele><time>2026-03-27T19:14:28Z</time></trkpt><trkpt lat="43.59303631769309" lon="11.314052405827368"><ele>220.0</ele><time>2026-03-27T19:14:30Z</time></trkpt><trkpt lat="43.59321472467412" lon="11.313750135264437"><ele>219.83333333333331</ele><time>2026-03-27T19:14:34Z</time></trkpt><trkpt lat="43.593308284545884" lon="11.313779721333823"><ele>219.66666666666666</ele><time>2026-03-27T19:14:37Z</time></trkpt><trkpt lat="43.59337818842438" lon="11.31380280450783"><ele>219.5</ele><time>2026-03-27T19:14:39Z</time></trkpt><trkpt lat="43.59346842149394" lon="11.313843600676536"><ele>219.33333333333331</ele><time>2026-03-27T19:14:42Z</time></trkpt><trkpt lat="43.59354826530928" lon="11.313908112192262"><ele>219.16666666666666</ele><time>2026-03-27T19:14:44Z</time></trkpt><trkpt lat="43.59360698891009" lon="11.313997593574268"><ele>219.0</ele><time>2026-03-27T19:14:47Z</time></trkpt><trkpt lat="43.59363720417983" lon="11.314076781772036"><ele>219.0</ele><time>2026-03-27T19:14:49Z</time></trkpt><trkpt lat="43.59366679168521" lon="11.314161305595984"><ele>219.0</ele><time>2026-03-27T19:14:51Z</time></trkpt><trkpt lat="43.59369884083573" lon="11.314246419726764"><ele>219.0</ele><time>2026-03-27T19:14:54Z</time></trkpt><trkpt lat="43.59373551856276" lon="11.31432781730518"><ele>219.0</ele><time>2026-03-27T19:15:02.999Z</time></trkpt><trkpt lat="43.59376598559102" lon="11.314412072925954"><ele>219.0</ele><time>2026-03-27T19:15:05.999Z</time></trkpt><trkpt lat="43.59381337345986" lon="11.314532415061665"><ele>219.0</ele><time>2026-03-27T19:15:08.999Z</time></trkpt><trkpt lat="43.593861756694395" lon="11.314635069650137"><ele>219.0</ele><time>2026-03-27T19:15:10.999Z</time></trkpt><trkpt lat="43.59392017944228" lon="11.314727484350424"><ele>218.99999999999997</ele><time>2026-03-27T19:15:12.999Z</time></trkpt><trkpt lat="43.59397665598351" lon="11.3148336793853"><ele>218.99999999999997</ele><time>2026-03-27T19:15:14.999Z</time></trkpt><trkpt lat="43.594035197265065" lon="11.314940088583214"><ele>219.0</ele><time>2026-03-27T19:15:16.999Z</time></trkpt><trkpt lat="43.59410583744507" lon="11.315051033046872"><ele>219.0</ele><time>2026-03-27T19:15:18.999Z</time></trkpt><trkpt lat="43.59417371889501" lon="11.315173906593657"><ele>219.0</ele><time>2026-03-27T19:15:20.999Z</time></trkpt><trkpt lat="43.594244303332616" lon="11.31528305398534"><ele>219.0</ele><time>2026-03-27T19:15:22.999Z</time></trkpt><trkpt lat="43.59431177555285" lon="11.315387248211588"><ele>219.0</ele><time>2026-03-27T19:15:24.999Z</time></trkpt><trkpt lat="43.59435734147198" lon="11.315454051772019"><ele>219.0</ele><time>2026-03-27T19:15:25.999Z</time></trkpt><trkpt lat="43.594413735032155" lon="11.315542850110576"><ele>219.0</ele><time>2026-03-27T19:15:26.999Z</time></trkpt><trkpt lat="43.594461545516076" lon="11.315612880932994"><ele>219.0</ele><time>2026-03-27T19:15:27.999Z</time></trkpt><trkpt lat="43.59450507672381" lon="11.315684849406933"><ele>218.6</ele><time>2026-03-27T19:15:28.999Z</time></trkpt><trkpt lat="43.59455224243464" lon="11.315754587782994"><ele>218.2</ele><time>2026-03-27T19:15:29.999Z</time></trkpt><trkpt lat="43.594631750197586" lon="11.315886852190532"><ele>217.79999999999998</ele><time>2026-03-27T19:15:31.999Z</time></trkpt><trkpt lat="43.59470115282854" lon="11.315987849608682"><ele>217.39999999999998</ele><time>2026-03-27T19:15:33.999Z</time></trkpt><trkpt lat="43.59473644854363" lon="11.316076533886074"><ele>217.0</ele><time>2026-03-27T19:15:35.999Z</time></trkpt><trkpt lat="43.59468091481455" lon="11.316164058017389"><ele>216.99999999999997</ele><time>2026-03-27T19:15:38.999Z</time></trkpt><trkpt lat="43.594620050227654" lon="11.316263418036106"><ele>217.0</ele><time>2026-03-27T19:15:40.999Z</time></trkpt><trkpt lat="43.59455211870745" lon="11.316373276152202"><ele>217.0</ele><time>2026-03-27T19:15:43Z</time></trkpt><trkpt lat="43.59450723358617" lon="11.31645553529285"><ele>217.0</ele><time>2026-03-27T19:15:45Z</time></trkpt><trkpt lat="43.594477585813216" lon="11.316540149827663"><ele>216.99999999999997</ele><time>2026-03-27T19:16:21Z</time></trkpt><trkpt lat="43.59452515983119" lon="11.316646861719988"><ele>217.0</ele><time>2026-03-27T19:16:23Z</time></trkpt><trkpt lat="43.59459933364435" lon="11.316673116185878"><ele>218.0</ele><time>2026-03-27T19:16:24Z</time></trkpt><trkpt lat="43.59467267934545" lon="11.316691711558041"><ele>219.0</ele><time>2026-03-27T19:16:25Z</time></trkpt><trkpt lat="43.59475759232577" lon="11.316710050983263"><ele>220.0</ele><time>2026-03-27T19:16:26Z</time></trkpt><trkpt lat="43.59485762424986" lon="11.316709110020595"><ele>221.0</ele><time>2026-03-27T19:16:27Z</time></trkpt><trkpt lat="43.59495954370931" lon="11.31670200703914"><ele>222.0</ele><time>2026-03-27T19:16:28Z</time></trkpt><trkpt lat="43.59506069972643" lon="11.316678400807211"><ele>222.0</ele><time>2026-03-27T19:16:29Z</time></trkpt><trkpt lat="43.59515947496545" lon="11.316659996364638"><ele>222.0</ele><time>2026-03-27T19:16:30Z</time></trkpt><trkpt lat="43.59525505292449" lon="11.31665410976896"><ele>222.0</ele><time>2026-03-27T19:16:31Z</time></trkpt><trkpt lat="43.595347092677805" lon="11.316660239981717"><ele>222.0</ele><time>2026-03-27T19:16:32Z</time></trkpt><trkpt lat="43.59543754994007" lon="11.316684653976353"><ele>222.0</ele><time>2026-03-27T19:16:33Z</time></trkpt><trkpt lat="43.59551613494787" lon="11.31669522774773"><ele>221.2</ele><time>2026-03-27T19:16:34Z</time></trkpt><trkpt lat="43.59560780951536" lon="11.31672426364585"><ele>220.39999999999998</ele><time>2026-03-27T19:16:35Z</time></trkpt><trkpt lat="43.59569805827649" lon="11.316749334921509"><ele>219.60000000000002</ele><time>2026-03-27T19:16:36Z</time></trkpt><trkpt lat="43.59579608748639" lon="11.316779148102357"><ele>218.8</ele><time>2026-03-27T19:16:37Z</time></trkpt><trkpt lat="43.595897080551076" lon="11.31681665814023"><ele>218.0</ele><time>2026-03-27T19:16:38Z</time></trkpt><trkpt lat="43.59599557888667" lon="11.316856904073088"><ele>218.0</ele><time>2026-03-27T19:16:39Z</time></trkpt><trkpt lat="43.59609423239557" lon="11.31688039435599"><ele>218.0</ele><time>2026-03-27T19:16:40Z</time></trkpt><trkpt lat="43.59618234928548" lon="11.31691211576421"><ele>218.0</ele><time>2026-03-27T19:16:41Z</time></trkpt><trkpt lat="43.59628191379638" lon="11.31694014716582"><ele>218.0</ele><time>2026-03-27T19:16:42Z</time></trkpt><trkpt lat="43.596375886718086" lon="11.316956466726575"><ele>218.0</ele><time>2026-03-27T19:16:43Z</time></trkpt><trkpt lat="43.59647184874203" lon="11.316965222258228"><ele>218.0</ele><time>2026-03-27T19:16:44Z</time></trkpt><trkpt lat="43.5965693466358" lon="11.316987109529064"><ele>218.0</ele><time>2026-03-27T19:16:45Z</time></trkpt><trkpt lat="43.596670254218424" lon="11.316951722544452"><ele>218.0</ele><time>2026-03-27T19:16:46Z</time></trkpt><trkpt lat="43.59677523499354" lon="11.316936363748418"><ele>218.0</ele><time>2026-03-27T19:16:47Z</time></trkpt><trkpt lat="43.59688572397591" lon="11.31691113832983"><ele>218.0</ele><time>2026-03-27T19:16:48Z</time></trkpt><trkpt lat="43.596991165380075" lon="11.316861424482813"><ele>218.5</ele><time>2026-03-27T19:16:49Z</time></trkpt><trkpt lat="43.59709576450016" lon="11.316797987041028"><ele>219.0</ele><time>2026-03-27T19:16:50Z</time></trkpt><trkpt lat="43.59720039773156" lon="11.316716150424499"><ele>219.5</ele><time>2026-03-27T19:16:51Z</time></trkpt><trkpt lat="43.59730875970836" lon="11.316640315545179"><ele>220.0</ele><time>2026-03-27T19:16:52Z</time></trkpt><trkpt lat="43.59741685368901" lon="11.316570074612956"><ele>220.0</ele><time>2026-03-27T19:16:53Z</time></trkpt><trkpt lat="43.59752500651034" lon="11.316499970769124"><ele>220.0</ele><time>2026-03-27T19:16:53.999Z</time></trkpt><trkpt lat="43.59762968533022" lon="11.316430149621908"><ele>220.0</ele><time>2026-03-27T19:16:54.999Z</time></trkpt><trkpt lat="43.597736581572406" lon="11.3163540275341"><ele>220.0</ele><time>2026-03-27T19:16:55.999Z</time></trkpt><trkpt lat="43.597839979069754" lon="11.316267875572722"><ele>220.0</ele><time>2026-03-27T19:16:56.999Z</time></trkpt><trkpt lat="43.597934775808966" lon="11.316171579933334"><ele>220.0</ele><time>2026-03-27T19:16:57.999Z</time></trkpt><trkpt lat="43.59801639632141" lon="11.316064966824168"><ele>220.0</ele><time>2026-03-27T19:16:58.999Z</time></trkpt><trkpt lat="43.598094181631275" lon="11.315947360830013"><ele>220.0</ele><time>2026-03-27T19:16:59.999Z</time></trkpt><trkpt lat="43.59816680243031" lon="11.315823699225726"><ele>220.0</ele><time>2026-03-27T19:17:00.999Z</time></trkpt><trkpt lat="43.598239118287694" lon="11.3157032055568"><ele>220.0</ele><time>2026-03-27T19:17:01.999Z</time></trkpt><trkpt lat="43.59830786749839" lon="11.315573248294129"><ele>220.0</ele><time>2026-03-27T19:17:02.999Z</time></trkpt><trkpt lat="43.59837718332739" lon="11.315447848772514"><ele>220.0</ele><time>2026-03-27T19:17:03.999Z</time></trkpt><trkpt lat="43.598449718987574" lon="11.315320552630583"><ele>219.0</ele><time>2026-03-27T19:17:04.999Z</time></trkpt><trkpt lat="43.59851705773176" lon="11.315191253964867"><ele>218.0</ele><time>2026-03-27T19:17:05.999Z</time></trkpt><trkpt lat="43.59858545239468" lon="11.315061199793975"><ele>217.0</ele><time>2026-03-27T19:17:06.999Z</time></trkpt><trkpt lat="43.59865666221635" lon="11.314932250622205"><ele>216.0</ele><time>2026-03-27T19:17:07.999Z</time></trkpt><trkpt lat="43.59872702743319" lon="11.314796188137842"><ele>216.25</ele><time>2026-03-27T19:17:08.999Z</time></trkpt><trkpt lat="43.59879604919097" lon="11.314663918925174"><ele>216.5</ele><time>2026-03-27T19:17:09.999Z</time></trkpt><trkpt lat="43.598869248601574" lon="11.314531684255925"><ele>216.75</ele><time>2026-03-27T19:17:10.999Z</time></trkpt><trkpt lat="43.598942412153136" lon="11.314402620157276"><ele>217.0</ele><time>2026-03-27T19:17:11.999Z</time></trkpt><trkpt lat="43.59901506320213" lon="11.314270779398736"><ele>217.0</ele><time>2026-03-27T19:17:12.999Z</time></trkpt><trkpt lat="43.599086811992734" lon="11.314138471281277"><ele>217.0</ele><time>2026-03-27T19:17:13.999Z</time></trkpt><trkpt lat="43.59915977443689" lon="11.31401106918366"><ele>217.0</ele><time>2026-03-27T19:17:14.999Z</time></trkpt><trkpt lat="43.59923257862956" lon="11.313885009060533"><ele>217.0</ele><time>2026-03-27T19:17:15.999Z</time></trkpt><trkpt lat="43.59930521523526" lon="11.31375232522551"><ele>216.75</ele><time>2026-03-27T19:17:16.999Z</time></trkpt><trkpt lat="43.59937603678819" lon="11.31361771493152"><ele>216.5</ele><time>2026-03-27T19:17:17.999Z</time></trkpt><trkpt lat="43.5994496124863" lon="11.313483104495305"><ele>216.25</ele><time>2026-03-27T19:17:18.999Z</time></trkpt><trkpt lat="43.59952083814594" lon="11.313351210763638"><ele>216.0</ele><time>2026-03-27T19:17:19.999Z</time></trkpt><trkpt lat="43.59959808760268" lon="11.313217927761345"><ele>216.0</ele><time>2026-03-27T19:17:20.999Z</time></trkpt><trkpt lat="43.59966766397319" lon="11.313093002073812"><ele>216.0</ele><time>2026-03-27T19:17:21.999Z</time></trkpt><trkpt lat="43.59974169140811" lon="11.312953827023255"><ele>216.0</ele><time>2026-03-27T19:17:22.999Z</time></trkpt><trkpt lat="43.599816933870734" lon="11.312822278113453"><ele>216.0</ele><time>2026-03-27T19:17:23.999Z</time></trkpt><trkpt lat="43.59989139022927" lon="11.312685868729677"><ele>215.25</ele><time>2026-03-27T19:17:24.999Z</time></trkpt><trkpt lat="43.59996478453134" lon="11.312550303003903"><ele>214.5</ele><time>2026-03-27T19:17:25.999Z</time></trkpt><trkpt lat="43.60004140156439" lon="11.31241305484611"><ele>213.75</ele><time>2026-03-27T19:17:26.999Z</time></trkpt><trkpt lat="43.60011040505238" lon="11.312281154466978"><ele>213.0</ele><time>2026-03-27T19:17:27.999Z</time></trkpt><trkpt lat="43.60018255462107" lon="11.31214598625483"><ele>213.0</ele><time>2026-03-27T19:17:28.999Z</time></trkpt><trkpt lat="43.60025639267026" lon="11.312013498694528"><ele>213.0</ele><time>2026-03-27T19:17:29.999Z</time></trkpt><trkpt lat="43.600328714684984" lon="11.311879537673919"><ele>213.0</ele><time>2026-03-27T19:17:30.999Z</time></trkpt><trkpt lat="43.60040146055212" lon="11.31174476414853"><ele>213.0</ele><time>2026-03-27T19:17:31.999Z</time></trkpt><trkpt lat="43.600474487986986" lon="11.311607142765421"><ele>213.5</ele><time>2026-03-27T19:17:32.999Z</time></trkpt><trkpt lat="43.60054908915003" lon="11.311471885077664"><ele>214.0</ele><time>2026-03-27T19:17:33.999Z</time></trkpt><trkpt lat="43.60062274436258" lon="11.311337426552424"><ele>214.5</ele><time>2026-03-27T19:17:34.999Z</time></trkpt><trkpt lat="43.600700586602436" lon="11.311203721498837"><ele>215.0</ele><time>2026-03-27T19:17:35.999Z</time></trkpt><trkpt lat="43.60077979964769" lon="11.311074848548397"><ele>215.0</ele><time>2026-03-27T19:17:36.999Z</time></trkpt><trkpt lat="43.60088239329759" lon="11.310960399602413"><ele>215.0</ele><time>2026-03-27T19:17:37.999Z</time></trkpt><trkpt lat="43.60097473207116" lon="11.31086735700185"><ele>215.0</ele><time>2026-03-27T19:17:38.999Z</time></trkpt><trkpt lat="43.60108060581321" lon="11.310758195500412"><ele>215.0</ele><time>2026-03-27T19:17:39.999Z</time></trkpt><trkpt lat="43.60120530039057" lon="11.310701077340333"><ele>214.25</ele><time>2026-03-27T19:17:40.999Z</time></trkpt><trkpt lat="43.601317621343725" lon="11.310620699677909"><ele>213.5</ele><time>2026-03-27T19:17:41.999Z</time></trkpt><trkpt lat="43.60143555029627" lon="11.310574337261686"><ele>212.75</ele><time>2026-03-27T19:17:42.999Z</time></trkpt><trkpt lat="43.60155808870939" lon="11.310508629714796"><ele>212.0</ele><time>2026-03-27T19:17:43.999Z</time></trkpt><trkpt lat="43.60167902763914" lon="11.310439353139822"><ele>212.0</ele><time>2026-03-27T19:17:44.999Z</time></trkpt><trkpt lat="43.601790626133564" lon="11.310365740370298"><ele>212.0</ele><time>2026-03-27T19:17:45.999Z</time></trkpt><trkpt lat="43.601906533692336" lon="11.310296465175515"><ele>212.0</ele><time>2026-03-27T19:17:46.999Z</time></trkpt><trkpt lat="43.602024631107575" lon="11.310232839805343"><ele>212.0</ele><time>2026-03-27T19:17:48Z</time></trkpt><trkpt lat="43.602142583896224" lon="11.310166401343388"><ele>212.5</ele><time>2026-03-27T19:17:49Z</time></trkpt><trkpt lat="43.60225946168934" lon="11.31009448853713"><ele>213.0</ele><time>2026-03-27T19:17:50Z</time></trkpt><trkpt lat="43.60237865296927" lon="11.31002320241472"><ele>213.5</ele><time>2026-03-27T19:17:51Z</time></trkpt><trkpt lat="43.602498354266864" lon="11.309955221749558"><ele>214.0</ele><time>2026-03-27T19:17:52Z</time></trkpt><trkpt lat="43.60261886346326" lon="11.309890120356851"><ele>214.0</ele><time>2026-03-27T19:17:53Z</time></trkpt><trkpt lat="43.60273951759525" lon="11.309823951057474"><ele>214.0</ele><time>2026-03-27T19:17:54Z</time></trkpt><trkpt lat="43.60285847353419" lon="11.309755238643016"><ele>214.0</ele><time>2026-03-27T19:17:55Z</time></trkpt><trkpt lat="43.602978667748246" lon="11.30969400489679"><ele>214.0</ele><time>2026-03-27T19:17:56Z</time></trkpt><trkpt lat="43.603099188429056" lon="11.309632876849651"><ele>213.75</ele><time>2026-03-27T19:17:57Z</time></trkpt><trkpt lat="43.60321438467586" lon="11.309569539266372"><ele>213.5</ele><time>2026-03-27T19:17:58Z</time></trkpt><trkpt lat="43.60333219303258" lon="11.30950323856951"><ele>213.25</ele><time>2026-03-27T19:17:59Z</time></trkpt><trkpt lat="43.6034500177678" lon="11.309436224730987"><ele>213.0</ele><time>2026-03-27T19:18:00Z</time></trkpt><trkpt lat="43.603562762706304" lon="11.309370997687264"><ele>213.75</ele><time>2026-03-27T19:18:01Z</time></trkpt><trkpt lat="43.60367344524536" lon="11.309299502172115"><ele>214.5</ele><time>2026-03-27T19:18:02Z</time></trkpt><trkpt lat="43.6037784083581" lon="11.309219184742805"><ele>215.25</ele><time>2026-03-27T19:18:03Z</time></trkpt><trkpt lat="43.60386959907343" lon="11.309121773953006"><ele>216.0</ele><time>2026-03-27T19:18:04Z</time></trkpt><trkpt lat="43.60394475990451" lon="11.309000497541264"><ele>216.0</ele><time>2026-03-27T19:18:05Z</time></trkpt><trkpt lat="43.60400637215178" lon="11.308859698742626"><ele>216.0</ele><time>2026-03-27T19:18:06Z</time></trkpt><trkpt lat="43.60406034475012" lon="11.30871363883688"><ele>216.0</ele><time>2026-03-27T19:18:07Z</time></trkpt><trkpt lat="43.60411066546325" lon="11.30857041736471"><ele>216.0</ele><time>2026-03-27T19:18:08Z</time></trkpt><trkpt lat="43.604167651187296" lon="11.308448312142293"><ele>216.0</ele><time>2026-03-27T19:18:09Z</time></trkpt><trkpt lat="43.604253759664076" lon="11.308346988328642"><ele>216.00000000000003</ele><time>2026-03-27T19:18:10Z</time></trkpt><trkpt lat="43.604273160081945" lon="11.308190880828386"><ele>216.00000000000003</ele><time>2026-03-27T19:18:11Z</time></trkpt><trkpt lat="43.60427489469488" lon="11.308061132223962"><ele>216.0</ele><time>2026-03-27T19:18:12Z</time></trkpt><trkpt lat="43.604292981793456" lon="11.30797174931046"><ele>216.0</ele><time>2026-03-27T19:18:13Z</time></trkpt><trkpt lat="43.60434413638639" lon="11.307913104579018"><ele>215.66666666666666</ele><time>2026-03-27T19:18:14Z</time></trkpt><trkpt lat="43.60440787354665" lon="11.307895155706461"><ele>215.33333333333331</ele><time>2026-03-27T19:18:15Z</time></trkpt><trkpt lat="43.60447444522219" lon="11.307972716626653"><ele>215.0</ele><time>2026-03-27T19:18:16Z</time></trkpt><trkpt lat="43.60455793887813" lon="11.307995591361218"><ele>214.66666666666666</ele><time>2026-03-27T19:18:17Z</time></trkpt><trkpt lat="43.604651615918904" lon="11.308011737563703"><ele>214.33333333333331</ele><time>2026-03-27T19:18:18Z</time></trkpt><trkpt lat="43.604765315051885" lon="11.308008077806244"><ele>214.0</ele><time>2026-03-27T19:18:19Z</time></trkpt><trkpt lat="43.60487848705091" lon="11.307987471291982"><ele>216.0</ele><time>2026-03-27T19:18:20Z</time></trkpt><trkpt lat="43.60498092256275" lon="11.307955390703864"><ele>217.99999999999997</ele><time>2026-03-27T19:18:21Z</time></trkpt><trkpt lat="43.60506315594247" lon="11.307935059297629"><ele>219.99999999999997</ele><time>2026-03-27T19:18:22Z</time></trkpt><trkpt lat="43.60514400841741" lon="11.307920933836995"><ele>222.0</ele><time>2026-03-27T19:18:23Z</time></trkpt><trkpt lat="43.60521304648466" lon="11.308008385444335"><ele>224.0</ele><time>2026-03-27T19:18:24Z</time></trkpt><trkpt lat="43.60530349832073" lon="11.308090433533188"><ele>224.75</ele><time>2026-03-27T19:18:25Z</time></trkpt><trkpt lat="43.60539255671385" lon="11.3081887802655"><ele>225.5</ele><time>2026-03-27T19:18:26Z</time></trkpt><trkpt lat="43.60549817764121" lon="11.308278961766666"><ele>226.25</ele><time>2026-03-27T19:18:27Z</time></trkpt><trkpt lat="43.60559515642919" lon="11.308385726403957"><ele>227.0</ele><time>2026-03-27T19:18:28Z</time></trkpt><trkpt lat="43.60569255703548" lon="11.308490350377143"><ele>227.0</ele><time>2026-03-27T19:18:29Z</time></trkpt><trkpt lat="43.60578152490637" lon="11.308592806310413"><ele>227.0</ele><time>2026-03-27T19:18:30Z</time></trkpt><trkpt lat="43.6058570379361" lon="11.308719519244898"><ele>227.0</ele><time>2026-03-27T19:18:31Z</time></trkpt><trkpt lat="43.60593716606476" lon="11.30883868621785"><ele>227.0</ele><time>2026-03-27T19:18:32Z</time></trkpt><trkpt lat="43.606035847480925" lon="11.308948867775122"><ele>227.5</ele><time>2026-03-27T19:18:33Z</time></trkpt><trkpt lat="43.60611887263388" lon="11.30908089177141"><ele>228.0</ele><time>2026-03-27T19:18:34Z</time></trkpt><trkpt lat="43.606209763766344" lon="11.309201231728554"><ele>228.5</ele><time>2026-03-27T19:18:35Z</time></trkpt><trkpt lat="43.606300796703295" lon="11.309312793073103"><ele>229.0</ele><time>2026-03-27T19:18:36Z</time></trkpt><trkpt lat="43.60640693344259" lon="11.309400910605238"><ele>229.25</ele><time>2026-03-27T19:18:37Z</time></trkpt><trkpt lat="43.606515575814" lon="11.309488508496448"><ele>229.5</ele><time>2026-03-27T19:18:38Z</time></trkpt><trkpt lat="43.60660612878413" lon="11.309611586825657"><ele>229.75</ele><time>2026-03-27T19:18:39Z</time></trkpt><trkpt lat="43.606694594543534" lon="11.309725654070295"><ele>230.0</ele><time>2026-03-27T19:18:40Z</time></trkpt><trkpt lat="43.606778801796345" lon="11.309836454297146"><ele>231.8</ele><time>2026-03-27T19:18:41Z</time></trkpt><trkpt lat="43.60684899223262" lon="11.309947892306534"><ele>233.6</ele><time>2026-03-27T19:18:42Z</time></trkpt><trkpt lat="43.60689929391048" lon="11.310078530255057"><ele>235.39999999999998</ele><time>2026-03-27T19:18:43Z</time></trkpt><trkpt lat="43.60695352367922" lon="11.310208235987666"><ele>237.2</ele><time>2026-03-27T19:18:44Z</time></trkpt><trkpt lat="43.60703540173908" lon="11.3103395516007"><ele>239.0</ele><time>2026-03-27T19:18:45Z</time></trkpt><trkpt lat="43.60712947189085" lon="11.310456663224523"><ele>239.25</ele><time>2026-03-27T19:18:46Z</time></trkpt><trkpt lat="43.607233001833265" lon="11.310555539658779"><ele>239.5</ele><time>2026-03-27T19:18:47Z</time></trkpt><trkpt lat="43.607319228469144" lon="11.310668781647875"><ele>239.75</ele><time>2026-03-27T19:18:48Z</time></trkpt><trkpt lat="43.60739089175695" lon="11.310792142691264"><ele>240.0</ele><time>2026-03-27T19:18:49Z</time></trkpt><trkpt lat="43.60748688600391" lon="11.310909520384225"><ele>242.75</ele><time>2026-03-27T19:18:50Z</time></trkpt><trkpt lat="43.60758800589305" lon="11.31100710988598"><ele>245.5</ele><time>2026-03-27T19:18:51Z</time></trkpt><trkpt lat="43.60764533328995" lon="11.311153487760418"><ele>248.25</ele><time>2026-03-27T19:18:52Z</time></trkpt><trkpt lat="43.60772501920761" lon="11.311308995872253"><ele>251.0</ele><time>2026-03-27T19:18:53Z</time></trkpt><trkpt lat="43.607808470792364" lon="11.311443199039696"><ele>254.0</ele><time>2026-03-27T19:18:53.999Z</time></trkpt><trkpt lat="43.60788005527898" lon="11.311599409962366"><ele>257.0</ele><time>2026-03-27T19:18:54.999Z</time></trkpt><trkpt lat="43.607952290867566" lon="11.311752754991499"><ele>260.0</ele><time>2026-03-27T19:18:55.999Z</time></trkpt><trkpt lat="43.60802015071796" lon="11.311905781901306"><ele>263.0</ele><time>2026-03-27T19:18:56.999Z</time></trkpt><trkpt lat="43.60809051534551" lon="11.312049367998814"><ele>263.0</ele><time>2026-03-27T19:18:57.999Z</time></trkpt><trkpt lat="43.60816164098919" lon="11.312194576506226"><ele>263.0</ele><time>2026-03-27T19:18:58.999Z</time></trkpt><trkpt lat="43.60825032284194" lon="11.312305124444384"><ele>263.0</ele><time>2026-03-27T19:18:59.999Z</time></trkpt><trkpt lat="43.60834916208814" lon="11.312414481970986"><ele>263.0</ele><time>2026-03-27T19:19:00.999Z</time></trkpt><trkpt lat="43.60845787213924" lon="11.312520126635357"><ele>263.25</ele><time>2026-03-27T19:19:01.999Z</time></trkpt><trkpt lat="43.608566682548116" lon="11.312624126573557"><ele>263.5</ele><time>2026-03-27T19:19:02.999Z</time></trkpt><trkpt lat="43.60865323118794" lon="11.312753594622327"><ele>263.75</ele><time>2026-03-27T19:19:03.999Z</time></trkpt><trkpt lat="43.60873215040533" lon="11.312883312720615"><ele>264.0</ele><time>2026-03-27T19:19:04.999Z</time></trkpt><trkpt lat="43.60881415272538" lon="11.313027202010487"><ele>267.4</ele><time>2026-03-27T19:19:05.999Z</time></trkpt><trkpt lat="43.60888763216587" lon="11.313169008525184"><ele>270.79999999999995</ele><time>2026-03-27T19:19:06.999Z</time></trkpt><trkpt lat="43.60895921112171" lon="11.313288922101485"><ele>274.20000000000005</ele><time>2026-03-27T19:19:07.999Z</time></trkpt><trkpt lat="43.609038982918584" lon="11.313381663006593"><ele>277.6</ele><time>2026-03-27T19:19:08.999Z</time></trkpt><trkpt lat="43.609081229626966" lon="11.313477541769211"><ele>281.0</ele><time>2026-03-27T19:19:09.999Z</time></trkpt><trkpt lat="43.609147717880305" lon="11.313546572964505"><ele>281.0</ele><time>2026-03-27T19:19:10.999Z</time></trkpt><trkpt lat="43.609233357455736" lon="11.313610457922382"><ele>281.0</ele><time>2026-03-27T19:19:11.999Z</time></trkpt><trkpt lat="43.60933162011493" lon="11.31366061268881"><ele>281.0</ele><time>2026-03-27T19:19:12.999Z</time></trkpt><trkpt lat="43.609424221758836" lon="11.313719049869581"><ele>281.0</ele><time>2026-03-27T19:19:13.999Z</time></trkpt><trkpt lat="43.60951627906293" lon="11.313778649627261"><ele>281.0</ele><time>2026-03-27T19:19:14.999Z</time></trkpt><trkpt lat="43.609610260773266" lon="11.313834656741127"><ele>281.2</ele><time>2026-03-27T19:19:15.999Z</time></trkpt><trkpt lat="43.60971196359573" lon="11.313862196507845"><ele>281.40000000000003</ele><time>2026-03-27T19:19:16.999Z</time></trkpt><trkpt lat="43.609794631756905" lon="11.313929545683338"><ele>281.6</ele><time>2026-03-27T19:19:17.999Z</time></trkpt><trkpt lat="43.60987044813624" lon="11.31398662668824"><ele>281.8</ele><time>2026-03-27T19:19:18.999Z</time></trkpt><trkpt lat="43.60995256465862" lon="11.314069860733792"><ele>282.0</ele><time>2026-03-27T19:19:19.999Z</time></trkpt><trkpt lat="43.610037811333" lon="11.314160707531059"><ele>284.75</ele><time>2026-03-27T19:19:20.999Z</time></trkpt><trkpt lat="43.610129699758254" lon="11.314266700789867"><ele>287.5</ele><time>2026-03-27T19:19:21.999Z</time></trkpt><trkpt lat="43.61022015796445" lon="11.314372080875543"><ele>290.25</ele><time>2026-03-27T19:19:22.999Z</time></trkpt><trkpt lat="43.61031110146813" lon="11.314475873234144"><ele>293.0</ele><time>2026-03-27T19:19:23.999Z</time></trkpt><trkpt lat="43.61040795213982" lon="11.314579404686496"><ele>293.25</ele><time>2026-03-27T19:19:24.999Z</time></trkpt><trkpt lat="43.61050594142467" lon="11.314680994222563"><ele>293.5</ele><time>2026-03-27T19:19:25.999Z</time></trkpt><trkpt lat="43.61060963536677" lon="11.314788262320839"><ele>293.75</ele><time>2026-03-27T19:19:26.999Z</time></trkpt><trkpt lat="43.61069210000408" lon="11.314871993148179"><ele>294.0</ele><time>2026-03-27T19:19:27.999Z</time></trkpt><trkpt lat="43.61079357748708" lon="11.314964343263611"><ele>297.0</ele><time>2026-03-27T19:19:28.999Z</time></trkpt><trkpt lat="43.610891575475414" lon="11.3150409970546"><ele>300.0</ele><time>2026-03-27T19:19:29.999Z</time></trkpt><trkpt lat="43.610982720181504" lon="11.315121656171607"><ele>303.0</ele><time>2026-03-27T19:19:30.999Z</time></trkpt><trkpt lat="43.61107411660431" lon="11.315221334958727"><ele>306.0</ele><time>2026-03-27T19:19:31.999Z</time></trkpt><trkpt lat="43.61116499354591" lon="11.315329232799762"><ele>306.75</ele><time>2026-03-27T19:19:32.999Z</time></trkpt><trkpt lat="43.6112754482208" lon="11.315419376426531"><ele>307.5</ele><time>2026-03-27T19:19:33.999Z</time></trkpt><trkpt lat="43.61138797421267" lon="11.315476131141764"><ele>308.25</ele><time>2026-03-27T19:19:34.999Z</time></trkpt><trkpt lat="43.61151060741364" lon="11.315517329819418"><ele>309.0</ele><time>2026-03-27T19:19:35.999Z</time></trkpt><trkpt lat="43.61162585286214" lon="11.315562771435818"><ele>310.5</ele><time>2026-03-27T19:19:36.999Z</time></trkpt><trkpt lat="43.61173793460408" lon="11.315619076234402"><ele>312.0</ele><time>2026-03-27T19:19:37.999Z</time></trkpt><trkpt lat="43.61184164978334" lon="11.31570405368924"><ele>313.5</ele><time>2026-03-27T19:19:38.999Z</time></trkpt><trkpt lat="43.611955789296786" lon="11.315775595372108"><ele>315.0</ele><time>2026-03-27T19:19:39.999Z</time></trkpt><trkpt lat="43.61205840595294" lon="11.315839372145115"><ele>315.8</ele><time>2026-03-27T19:19:40.999Z</time></trkpt><trkpt lat="43.612157954525884" lon="11.315884093938305"><ele>316.6</ele><time>2026-03-27T19:19:41.999Z</time></trkpt><trkpt lat="43.61225331500545" lon="11.315881391831697"><ele>317.4</ele><time>2026-03-27T19:19:42.999Z</time></trkpt><trkpt lat="43.61235298952552" lon="11.315891500980431"><ele>318.2</ele><time>2026-03-27T19:19:43.999Z</time></trkpt><trkpt lat="43.612462838885065" lon="11.315900323847771"><ele>319.0</ele><time>2026-03-27T19:19:44.999Z</time></trkpt><trkpt lat="43.612579537912865" lon="11.31592239917196"><ele>319.0</ele><time>2026-03-27T19:19:45.999Z</time></trkpt><trkpt lat="43.61269344365648" lon="11.315949583979588"><ele>319.0</ele><time>2026-03-27T19:19:46.999Z</time></trkpt><trkpt lat="43.612803283439234" lon="11.315978028370564"><ele>319.0</ele><time>2026-03-27T19:19:47.999Z</time></trkpt><trkpt lat="43.61291167923242" lon="11.316035238288915"><ele>319.0</ele><time>2026-03-27T19:19:48.999Z</time></trkpt><trkpt lat="43.613019716529415" lon="11.316069200620555"><ele>320.5</ele><time>2026-03-27T19:19:49.999Z</time></trkpt><trkpt lat="43.613135579994896" lon="11.316078940002953"><ele>322.0</ele><time>2026-03-27T19:19:50.999Z</time></trkpt><trkpt lat="43.613250986492694" lon="11.316116688560511"><ele>323.5</ele><time>2026-03-27T19:19:51.999Z</time></trkpt><trkpt lat="43.61337141199825" lon="11.316152732892606"><ele>325.0</ele><time>2026-03-27T19:19:52.999Z</time></trkpt><trkpt lat="43.613490030190455" lon="11.31618170821958"><ele>325.0</ele><time>2026-03-27T19:19:54Z</time></trkpt><trkpt lat="43.61360944943158" lon="11.31621022898136"><ele>325.0</ele><time>2026-03-27T19:19:55Z</time></trkpt><trkpt lat="43.61372729378348" lon="11.31623966378328"><ele>325.0</ele><time>2026-03-27T19:19:56Z</time></trkpt><trkpt lat="43.61384573753526" lon="11.316269080604256"><ele>325.0</ele><time>2026-03-27T19:19:57Z</time></trkpt><trkpt lat="43.61395689189489" lon="11.3163028717763"><ele>326.8</ele><time>2026-03-27T19:19:58Z</time></trkpt><trkpt lat="43.61406803161403" lon="11.316343943959025"><ele>328.6</ele><time>2026-03-27T19:19:59Z</time></trkpt><trkpt lat="43.614174438326835" lon="11.316321482766746"><ele>330.4</ele><time>2026-03-27T19:20:00Z</time></trkpt><trkpt lat="43.61428259115615" lon="11.316338845648508"><ele>332.2</ele><time>2026-03-27T19:20:01Z</time></trkpt><trkpt lat="43.614395983847814" lon="11.316328617465462"><ele>334.0</ele><time>2026-03-27T19:20:02Z</time></trkpt><trkpt lat="43.61450831642365" lon="11.316331875601374"><ele>335.4</ele><time>2026-03-27T19:20:03Z</time></trkpt><trkpt lat="43.61461640868076" lon="11.316350220622263"><ele>336.79999999999995</ele><time>2026-03-27T19:20:04Z</time></trkpt><trkpt lat="43.614726429696276" lon="11.316370306139511"><ele>338.20000000000005</ele><time>2026-03-27T19:20:05Z</time></trkpt><trkpt lat="43.6148356047189" lon="11.316390237274392"><ele>339.6</ele><time>2026-03-27T19:20:06Z</time></trkpt><trkpt lat="43.6149431246125" lon="11.316409504682452"><ele>341.0</ele><time>2026-03-27T19:20:07Z</time></trkpt><trkpt lat="43.61505140327351" lon="11.316426318098245"><ele>341.0</ele><time>2026-03-27T19:20:08Z</time></trkpt><trkpt lat="43.61515891061068" lon="11.31643054910761"><ele>341.0</ele><time>2026-03-27T19:20:09Z</time></trkpt><trkpt lat="43.6152837825242" lon="11.316421407939421"><ele>341.0</ele><time>2026-03-27T19:20:10Z</time></trkpt><trkpt lat="43.615398380080634" lon="11.316384726289057"><ele>341.0</ele><time>2026-03-27T19:20:11Z</time></trkpt><trkpt lat="43.615508529632095" lon="11.316376986638193"><ele>344.75</ele><time>2026-03-27T19:20:12Z</time></trkpt><trkpt lat="43.61561852626011" lon="11.316422395407779"><ele>348.5</ele><time>2026-03-27T19:20:13Z</time></trkpt><trkpt lat="43.61572568675814" lon="11.316465434231231"><ele>352.25</ele><time>2026-03-27T19:20:14Z</time></trkpt><trkpt lat="43.615829849327646" lon="11.316531859472736"><ele>356.0</ele><time>2026-03-27T19:20:15Z</time></trkpt><trkpt lat="43.615921553693255" lon="11.316615108956968"><ele>356.0</ele><time>2026-03-27T19:20:16Z</time></trkpt><trkpt lat="43.616015123737476" lon="11.316682552302733"><ele>356.0</ele><time>2026-03-27T19:20:17Z</time></trkpt><trkpt lat="43.61611545748694" lon="11.316731529645633"><ele>356.0</ele><time>2026-03-27T19:20:18Z</time></trkpt><trkpt lat="43.616219540126" lon="11.316767353900032"><ele>356.0</ele><time>2026-03-27T19:20:19Z</time></trkpt><trkpt lat="43.616328313040704" lon="11.316772675801063"><ele>356.0</ele><time>2026-03-27T19:20:20Z</time></trkpt><trkpt lat="43.6164272069736" lon="11.316825393332127"><ele>356.75</ele><time>2026-03-27T19:20:21Z</time></trkpt><trkpt lat="43.61648941213488" lon="11.316949825668972"><ele>357.5</ele><time>2026-03-27T19:20:22Z</time></trkpt><trkpt lat="43.616570614360164" lon="11.317070995659929"><ele>358.25</ele><time>2026-03-27T19:20:23Z</time></trkpt><trkpt lat="43.61665649780122" lon="11.317193435355131"><ele>359.0</ele><time>2026-03-27T19:20:24Z</time></trkpt><trkpt lat="43.61673730489931" lon="11.317302892190197"><ele>359.4</ele><time>2026-03-27T19:20:25Z</time></trkpt><trkpt lat="43.61681633360249" lon="11.31740403735127"><ele>359.79999999999995</ele><time>2026-03-27T19:20:26Z</time></trkpt><trkpt lat="43.616907555834075" lon="11.317485645899126"><ele>360.20000000000005</ele><time>2026-03-27T19:20:27Z</time></trkpt><trkpt lat="43.61697786474053" lon="11.317593665492819"><ele>360.6</ele><time>2026-03-27T19:20:28Z</time></trkpt><trkpt lat="43.61705487787696" lon="11.317672034553842"><ele>361.0</ele><time>2026-03-27T19:20:29Z</time></trkpt><trkpt lat="43.61714456657628" lon="11.317737687326055"><ele>361.0</ele><time>2026-03-27T19:20:30Z</time></trkpt><trkpt lat="43.6172480240591" lon="11.317774004610103"><ele>361.0</ele><time>2026-03-27T19:20:31Z</time></trkpt><trkpt lat="43.61734277204676" lon="11.317835009212335"><ele>361.0</ele><time>2026-03-27T19:20:32Z</time></trkpt><trkpt lat="43.617437223123126" lon="11.317883208183375"><ele>361.0</ele><time>2026-03-27T19:20:33Z</time></trkpt><trkpt lat="43.617532396538586" lon="11.317954562480223"><ele>361.0</ele><time>2026-03-27T19:20:34Z</time></trkpt><trkpt lat="43.61762102750877" lon="11.31805478405551"><ele>361.20000000000005</ele><time>2026-03-27T19:20:35Z</time></trkpt><trkpt lat="43.61771449313838" lon="11.31813615083645"><ele>361.40000000000003</ele><time>2026-03-27T19:20:36Z</time></trkpt><trkpt lat="43.61780488514795" lon="11.318205868416367"><ele>361.6</ele><time>2026-03-27T19:20:37Z</time></trkpt><trkpt lat="43.61789111885095" lon="11.318263643131012"><ele>361.8</ele><time>2026-03-27T19:20:38Z</time></trkpt><trkpt lat="43.6179837229165" lon="11.318303197648907"><ele>362.0</ele><time>2026-03-27T19:20:39Z</time></trkpt><trkpt lat="43.61806898027332" lon="11.318359131465346"><ele>362.0</ele><time>2026-03-27T19:20:40Z</time></trkpt><trkpt lat="43.61814825802346" lon="11.318439551924971"><ele>362.0</ele><time>2026-03-27T19:20:41Z</time></trkpt><trkpt lat="43.618216685387246" lon="11.318517195645173"><ele>362.0</ele><time>2026-03-27T19:20:42Z</time></trkpt><trkpt lat="43.618281584087114" lon="11.318604013660954"><ele>362.0</ele><time>2026-03-27T19:20:43Z</time></trkpt><trkpt lat="43.618353101114764" lon="11.31871112072059"><ele>362.0</ele><time>2026-03-27T19:20:44Z</time></trkpt><trkpt lat="43.61841602366148" lon="11.318806591252125"><ele>361.20000000000005</ele><time>2026-03-27T19:20:45Z</time></trkpt><trkpt lat="43.618488423124376" lon="11.318908911949228"><ele>360.4</ele><time>2026-03-27T19:20:46Z</time></trkpt><trkpt lat="43.6185638907288" lon="11.319009866140092"><ele>359.6</ele><time>2026-03-27T19:20:47Z</time></trkpt><trkpt lat="43.618637375407246" lon="11.319102957255419"><ele>358.79999999999995</ele><time>2026-03-27T19:20:48Z</time></trkpt><trkpt lat="43.61871003067801" lon="11.319189546772922"><ele>358.0</ele><time>2026-03-27T19:20:49Z</time></trkpt><trkpt lat="43.618782654213135" lon="11.319276496198402"><ele>357.79999999999995</ele><time>2026-03-27T19:20:50Z</time></trkpt><trkpt lat="43.61887315158409" lon="11.319353966618776"><ele>357.6</ele><time>2026-03-27T19:20:51Z</time></trkpt><trkpt lat="43.61895754702405" lon="11.319449999866112"><ele>357.4</ele><time>2026-03-27T19:20:51.999Z</time></trkpt><trkpt lat="43.61902820715776" lon="11.319553430014162"><ele>357.20000000000005</ele><time>2026-03-27T19:20:52.999Z</time></trkpt><trkpt lat="43.61908753663923" lon="11.31964883254836"><ele>357.0</ele><time>2026-03-27T19:20:53.999Z</time></trkpt><trkpt lat="43.619147745611" lon="11.319736257600573"><ele>357.20000000000005</ele><time>2026-03-27T19:20:54.999Z</time></trkpt><trkpt lat="43.619208639626365" lon="11.319821203428136"><ele>357.4</ele><time>2026-03-27T19:20:55.999Z</time></trkpt><trkpt lat="43.619262799909485" lon="11.319895495489543"><ele>357.6</ele><time>2026-03-27T19:20:56.999Z</time></trkpt><trkpt lat="43.61931807580225" lon="11.319968613025866"><ele>357.79999999999995</ele><time>2026-03-27T19:20:57.999Z</time></trkpt><trkpt lat="43.619406572289826" lon="11.320073174642454"><ele>358.0</ele><time>2026-03-27T19:20:59.999Z</time></trkpt><trkpt lat="43.61949806876637" lon="11.320175493447532"><ele>358.0</ele><time>2026-03-27T19:21:01.999Z</time></trkpt><trkpt lat="43.61958473057645" lon="11.320276499576483"><ele>358.0</ele><time>2026-03-27T19:21:03.999Z</time></trkpt><trkpt lat="43.619630991735555" lon="11.320352755819856"><ele>358.0</ele><time>2026-03-27T19:21:04.999Z</time></trkpt><trkpt lat="43.6196916535154" lon="11.320492560684219"><ele>358.0</ele><time>2026-03-27T19:21:06.999Z</time></trkpt><trkpt lat="43.619722448275105" lon="11.320573268778851"><ele>358.0</ele><time>2026-03-27T19:21:07.999Z</time></trkpt><trkpt lat="43.61978338981067" lon="11.32072977948588"><ele>358.14285714285717</ele><time>2026-03-27T19:21:09.999Z</time></trkpt><trkpt lat="43.61981553920458" lon="11.320811603362271"><ele>358.2857142857143</ele><time>2026-03-27T19:21:10.999Z</time></trkpt><trkpt lat="43.61984779784013" lon="11.320893176415009"><ele>358.42857142857144</ele><time>2026-03-27T19:21:11.999Z</time></trkpt><trkpt lat="43.61988474657496" lon="11.320985003841656"><ele>358.57142857142856</ele><time>2026-03-27T19:21:12.999Z</time></trkpt><trkpt lat="43.619917847129805" lon="11.321066050906511"><ele>358.7142857142857</ele><time>2026-03-27T19:21:13.999Z</time></trkpt><trkpt lat="43.61994941067615" lon="11.321143335106132"><ele>358.8571428571429</ele><time>2026-03-27T19:21:14.999Z</time></trkpt><trkpt lat="43.619986444101976" lon="11.321223554125828"><ele>359.0</ele><time>2026-03-27T19:21:15.999Z</time></trkpt><trkpt lat="43.6200219271173" lon="11.321307096674929"><ele>358.83333333333337</ele><time>2026-03-27T19:21:16.999Z</time></trkpt><trkpt lat="43.62006060428431" lon="11.321402386780019"><ele>358.6666666666667</ele><time>2026-03-27T19:21:17.999Z</time></trkpt><trkpt lat="43.62010378119254" lon="11.321508764153707"><ele>358.5</ele><time>2026-03-27T19:21:18.999Z</time></trkpt><trkpt lat="43.62014907687067" lon="11.321620361676478"><ele>358.3333333333333</ele><time>2026-03-27T19:21:19.999Z</time></trkpt><trkpt lat="43.620190263117856" lon="11.321729573441415"><ele>358.16666666666663</ele><time>2026-03-27T19:21:20.999Z</time></trkpt><trkpt lat="43.620213275915454" lon="11.321824549420782"><ele>358.0</ele><time>2026-03-27T19:21:21.999Z</time></trkpt><trkpt lat="43.62023041522095" lon="11.3219159508573"><ele>358.0</ele><time>2026-03-27T19:21:22.999Z</time></trkpt><trkpt lat="43.620262422283915" lon="11.322009972371253"><ele>358.0</ele><time>2026-03-27T19:21:23.999Z</time></trkpt><trkpt lat="43.62026944112194" lon="11.322100973946414"><ele>358.0</ele><time>2026-03-27T19:21:24.999Z</time></trkpt><trkpt lat="43.62030488819418" lon="11.322260032722426"><ele>358.0</ele><time>2026-03-27T19:21:26.999Z</time></trkpt><trkpt lat="43.62032484562923" lon="11.322349586106142"><ele>358.0</ele><time>2026-03-27T19:21:27.999Z</time></trkpt><trkpt lat="43.62034992251983" lon="11.322462111486432"><ele>358.0</ele><time>2026-03-27T19:21:28.999Z</time></trkpt><trkpt lat="43.62037194626027" lon="11.322560936870484"><ele>358.2</ele><time>2026-03-27T19:21:29.999Z</time></trkpt><trkpt lat="43.620399619681" lon="11.322684020263948"><ele>358.4</ele><time>2026-03-27T19:21:30.999Z</time></trkpt><trkpt lat="43.62043198279534" lon="11.322827245092618"><ele>358.59999999999997</ele><time>2026-03-27T19:21:31.999Z</time></trkpt><trkpt lat="43.62046249008668" lon="11.322962256492525"><ele>358.79999999999995</ele><time>2026-03-27T19:21:32.999Z</time></trkpt><trkpt lat="43.62050752264803" lon="11.323085082915357"><ele>359.0</ele><time>2026-03-27T19:21:33.999Z</time></trkpt><trkpt lat="43.62051725367468" lon="11.323212199653018"><ele>360.0</ele><time>2026-03-27T19:21:34.999Z</time></trkpt><trkpt lat="43.62053573954661" lon="11.323320634529445"><ele>361.0</ele><time>2026-03-27T19:21:35.999Z</time></trkpt><trkpt lat="43.62055852697705" lon="11.32343287535213"><ele>362.0</ele><time>2026-03-27T19:21:36.999Z</time></trkpt><trkpt lat="43.62059412732918" lon="11.323538389917971"><ele>363.0</ele><time>2026-03-27T19:21:37.999Z</time></trkpt><trkpt lat="43.62065484062858" lon="11.3236276101142"><ele>364.0</ele><time>2026-03-27T19:21:38.999Z</time></trkpt><trkpt lat="43.62065736279136" lon="11.323746743698523"><ele>365.0</ele><time>2026-03-27T19:21:39.999Z</time></trkpt><trkpt lat="43.62070611815602" lon="11.323842782268544"><ele>366.1666666666667</ele><time>2026-03-27T19:21:40.999Z</time></trkpt><trkpt lat="43.62074099230657" lon="11.32394512050762"><ele>367.33333333333337</ele><time>2026-03-27T19:21:41.999Z</time></trkpt><trkpt lat="43.620790522990404" lon="11.324026734873515"><ele>368.5</ele><time>2026-03-27T19:21:42.999Z</time></trkpt><trkpt lat="43.62081713621505" lon="11.324136028274767"><ele>369.6666666666667</ele><time>2026-03-27T19:21:43.999Z</time></trkpt><trkpt lat="43.62084863161338" lon="11.324230634220834"><ele>370.8333333333333</ele><time>2026-03-27T19:21:44.999Z</time></trkpt><trkpt lat="43.62087007411308" lon="11.324340975191417"><ele>372.0</ele><time>2026-03-27T19:21:45.999Z</time></trkpt><trkpt lat="43.62087842542143" lon="11.324437181589559"><ele>372.0</ele><time>2026-03-27T19:21:46.999Z</time></trkpt><trkpt lat="43.620868448515765" lon="11.324607728403441"><ele>372.0</ele><time>2026-03-27T19:21:48.999Z</time></trkpt><trkpt lat="43.62083871352583" lon="11.32470223954941"><ele>372.0</ele><time>2026-03-27T19:21:49.999Z</time></trkpt><trkpt lat="43.62082435101084" lon="11.324787357256035"><ele>372.0</ele><time>2026-03-27T19:21:50.999Z</time></trkpt><trkpt lat="43.62082832604011" lon="11.324883806452428"><ele>372.0</ele><time>2026-03-27T19:21:51.999Z</time></trkpt><trkpt lat="43.62089754759246" lon="11.324952594905527"><ele>372.0</ele><time>2026-03-27T19:21:52.999Z</time></trkpt><trkpt lat="43.62096234646013" lon="11.325021081079168"><ele>373.0</ele><time>2026-03-27T19:21:53.999Z</time></trkpt><trkpt lat="43.62101797925521" lon="11.325109732917308"><ele>374.0</ele><time>2026-03-27T19:21:54.999Z</time></trkpt><trkpt lat="43.621078403309056" lon="11.325186817730955"><ele>375.0</ele><time>2026-03-27T19:21:55.999Z</time></trkpt><trkpt lat="43.62113370220908" lon="11.325259615394335"><ele>376.0</ele><time>2026-03-27T19:21:56.999Z</time></trkpt><trkpt lat="43.621184841231745" lon="11.325326936831399"><ele>377.0</ele><time>2026-03-27T19:21:57.999Z</time></trkpt><trkpt lat="43.62123723650332" lon="11.325395911758548"><ele>378.0</ele><time>2026-03-27T19:21:58.999Z</time></trkpt><trkpt lat="43.621300148829846" lon="11.32544703175329"><ele>379.1666666666667</ele><time>2026-03-27T19:22:00Z</time></trkpt><trkpt lat="43.62135455173178" lon="11.32552384754965"><ele>380.33333333333337</ele><time>2026-03-27T19:22:01Z</time></trkpt><trkpt lat="43.62141135549467" lon="11.325599215578048"><ele>381.5</ele><time>2026-03-27T19:22:02Z</time></trkpt><trkpt lat="43.62146654682733" lon="11.325668989285564"><ele>382.6666666666667</ele><time>2026-03-27T19:22:03Z</time></trkpt><trkpt lat="43.62151701571926" lon="11.325753332709859"><ele>383.83333333333337</ele><time>2026-03-27T19:22:04Z</time></trkpt><trkpt lat="43.621567216866914" lon="11.325812479734788"><ele>385.0</ele><time>2026-03-27T19:22:05Z</time></trkpt><trkpt lat="43.62166854295847" lon="11.32595778928257"><ele>386.6666666666667</ele><time>2026-03-27T19:22:07Z</time></trkpt><trkpt lat="43.62172721156093" lon="11.326031557568058"><ele>388.33333333333337</ele><time>2026-03-27T19:22:08Z</time></trkpt><trkpt lat="43.62178718392576" lon="11.326101251662255"><ele>390.0</ele><time>2026-03-27T19:22:09Z</time></trkpt><trkpt lat="43.62184901625855" lon="11.326141265504745"><ele>391.66666666666663</ele><time>2026-03-27T19:22:10Z</time></trkpt><trkpt lat="43.621917873456724" lon="11.326196333176322"><ele>393.3333333333333</ele><time>2026-03-27T19:22:11Z</time></trkpt><trkpt lat="43.621987133397596" lon="11.326241913060302"><ele>395.0</ele><time>2026-03-27T19:22:12Z</time></trkpt><trkpt lat="43.62205388690399" lon="11.326273101326265"><ele>397.0</ele><time>2026-03-27T19:22:13Z</time></trkpt><trkpt lat="43.622122483175886" lon="11.326325765150091"><ele>399.0</ele><time>2026-03-27T19:22:14Z</time></trkpt><trkpt lat="43.62218654050354" lon="11.326305210135711"><ele>401.0</ele><time>2026-03-27T19:22:15Z</time></trkpt><trkpt lat="43.62229429694278" lon="11.326334701224491"><ele>403.0</ele><time>2026-03-27T19:22:17Z</time></trkpt><trkpt lat="43.622349129114944" lon="11.32640540864555"><ele>405.0</ele><time>2026-03-27T19:22:19Z</time></trkpt><trkpt lat="43.62242051367495" lon="11.326544557920833"><ele>407.6</ele><time>2026-03-27T19:22:21Z</time></trkpt><trkpt lat="43.622479832509825" lon="11.326578546985361"><ele>410.2</ele><time>2026-03-27T19:22:22Z</time></trkpt><trkpt lat="43.62251520747122" lon="11.326651740873201"><ele>412.79999999999995</ele><time>2026-03-27T19:22:23Z</time></trkpt><trkpt lat="43.6225612165715" lon="11.326794821671346"><ele>415.4</ele><time>2026-03-27T19:22:25Z</time></trkpt><trkpt lat="43.622566585542444" lon="11.326944328678026"><ele>418.0</ele><time>2026-03-27T19:22:27Z</time></trkpt><trkpt lat="43.62257922168841" lon="11.327092908060978"><ele>418.00000000000006</ele><time>2026-03-27T19:22:29Z</time></trkpt><trkpt lat="43.62257652968455" lon="11.327182775079795"><ele>418.0</ele><time>2026-03-27T19:22:30Z</time></trkpt><trkpt lat="43.622578424687866" lon="11.327271607117167"><ele>418.0</ele><time>2026-03-27T19:22:31Z</time></trkpt><trkpt lat="43.622577137545" lon="11.327363458841539"><ele>418.0</ele><time>2026-03-27T19:22:32Z</time></trkpt><trkpt lat="43.622576272396664" lon="11.327531911724906"><ele>418.00000000000006</ele><time>2026-03-27T19:22:34Z</time></trkpt><trkpt lat="43.62257359661639" lon="11.327695949349607"><ele>418.0</ele><time>2026-03-27T19:22:36Z</time></trkpt><trkpt lat="43.62257654044622" lon="11.327786042997774"><ele>419.5</ele><time>2026-03-27T19:22:37Z</time></trkpt><trkpt lat="43.6226041647389" lon="11.327946668229325"><ele>421.0</ele><time>2026-03-27T19:22:39Z</time></trkpt><trkpt lat="43.62266383361614" lon="11.328076145434311"><ele>422.5</ele><time>2026-03-27T19:22:41Z</time></trkpt><trkpt lat="43.62277108587071" lon="11.328150523762414"><ele>424.0</ele><time>2026-03-27T19:22:43Z</time></trkpt><trkpt lat="43.6228665198589" lon="11.328213272043868"><ele>431.5</ele><time>2026-03-27T19:22:45Z</time></trkpt><trkpt lat="43.622956221347756" lon="11.328317002018197"><ele>439.0</ele><time>2026-03-27T19:22:47Z</time></trkpt><trkpt lat="43.62303515404584" lon="11.328453367104423"><ele>446.5</ele><time>2026-03-27T19:22:49Z</time></trkpt><trkpt lat="43.623098322157055" lon="11.328591295678155"><ele>454.0</ele><time>2026-03-27T19:22:51Z</time></trkpt><trkpt lat="43.623167075997195" lon="11.32867999856271"><ele>454.0</ele><time>2026-03-27T19:22:53Z</time></trkpt><trkpt lat="43.623263073751204" lon="11.328637987937745"><ele>454.0</ele><time>2026-03-27T19:22:54.999Z</time></trkpt><trkpt lat="43.6233414760946" lon="11.328563557455729"><ele>454.0</ele><time>2026-03-27T19:22:56.999Z</time></trkpt><trkpt lat="43.623437144948504" lon="11.328502947990962"><ele>454.0</ele><time>2026-03-27T19:22:58.999Z</time></trkpt><trkpt lat="43.62355329903563" lon="11.328480407895618"><ele>454.0</ele><time>2026-03-27T19:23:00.999Z</time></trkpt><trkpt lat="43.623671391285086" lon="11.328471374372583"><ele>458.6</ele><time>2026-03-27T19:23:02.999Z</time></trkpt><trkpt lat="43.62377754307165" lon="11.32846806371131"><ele>463.2</ele><time>2026-03-27T19:23:04.999Z</time></trkpt><trkpt lat="43.623857652157895" lon="11.32840249796866"><ele>467.80000000000007</ele><time>2026-03-27T19:23:06.999Z</time></trkpt><trkpt lat="43.62393903563214" lon="11.328279928104417"><ele>472.40000000000003</ele><time>2026-03-27T19:23:08.999Z</time></trkpt><trkpt lat="43.62402278618139" lon="11.328218435845175"><ele>477.0</ele><time>2026-03-27T19:23:10.999Z</time></trkpt><trkpt lat="43.62412964589017" lon="11.328215064177561"><ele>477.0</ele><time>2026-03-27T19:23:12.999Z</time></trkpt><trkpt lat="43.62418945144413" lon="11.328187884274794"><ele>477.0</ele><time>2026-03-27T19:23:13.999Z</time></trkpt><trkpt lat="43.624249857855915" lon="11.328149133312186"><ele>477.0</ele><time>2026-03-27T19:23:14.999Z</time></trkpt><trkpt lat="43.62436199234819" lon="11.32806886140352"><ele>477.0</ele><time>2026-03-27T19:23:16.999Z</time></trkpt><trkpt lat="43.624416974918304" lon="11.328015027747293"><ele>477.0</ele><time>2026-03-27T19:23:17.999Z</time></trkpt><trkpt lat="43.62446223954946" lon="11.327946634807681"><ele>477.0</ele><time>2026-03-27T19:23:18.999Z</time></trkpt><trkpt lat="43.62449368976454" lon="11.327869608259299"><ele>477.1666666666667</ele><time>2026-03-27T19:23:19.999Z</time></trkpt><trkpt lat="43.62454664478315" lon="11.327724674871146"><ele>477.33333333333337</ele><time>2026-03-27T19:23:21.999Z</time></trkpt><trkpt lat="43.62464800649657" lon="11.327642554021944"><ele>477.5</ele><time>2026-03-27T19:23:23.999Z</time></trkpt><trkpt lat="43.62471302182264" lon="11.327627564511019"><ele>477.6666666666667</ele><time>2026-03-27T19:23:24.999Z</time></trkpt><trkpt lat="43.62478425045902" lon="11.327628949584271"><ele>477.83333333333337</ele><time>2026-03-27T19:23:25.999Z</time></trkpt><trkpt lat="43.62485465641738" lon="11.327625652939892"><ele>478.0</ele><time>2026-03-27T19:23:26.999Z</time></trkpt><trkpt lat="43.624933873213195" lon="11.327601920618273"><ele>478.00000000000006</ele><time>2026-03-27T19:23:27.999Z</time></trkpt><trkpt lat="43.62500258752309" lon="11.327581542078578"><ele>478.0</ele><time>2026-03-27T19:23:28.999Z</time></trkpt><trkpt lat="43.625116686048166" lon="11.327553574187409"><ele>478.0</ele><time>2026-03-27T19:23:30.999Z</time></trkpt><trkpt lat="43.62517855729069" lon="11.327536346929406"><ele>478.0</ele><time>2026-03-27T19:23:31.999Z</time></trkpt><trkpt lat="43.62524262734003" lon="11.327532092016666"><ele>478.00000000000006</ele><time>2026-03-27T19:23:32.999Z</time></trkpt><trkpt lat="43.62531121248173" lon="11.327543790855865"><ele>478.0</ele><time>2026-03-27T19:23:33.999Z</time></trkpt><trkpt lat="43.6253773986686" lon="11.327560221255535"><ele>478.0</ele><time>2026-03-27T19:23:34.999Z</time></trkpt><trkpt lat="43.625472685507816" lon="11.32762053627218"><ele>477.99999999999994</ele><time>2026-03-27T19:23:36.999Z</time></trkpt><trkpt lat="43.625384557069935" lon="11.327712454408893"><ele>477.99999999999994</ele><time>2026-03-27T19:23:41.999Z</time></trkpt><trkpt lat="43.62530988168585" lon="11.3277264172363"><ele>478.0</ele><time>2026-03-27T19:26:24Z</time></trkpt><trkpt lat="43.62522577398074" lon="11.327759354455685"><ele>478.0</ele><time>2026-03-27T19:26:26Z</time></trkpt><trkpt lat="43.62518727057004" lon="11.327874453125927"><ele>478.00000000000006</ele><time>2026-03-27T19:26:29Z</time></trkpt><trkpt lat="43.62522405846337" lon="11.327959327914623"><ele>478.0</ele><time>2026-03-27T19:26:31Z</time></trkpt><trkpt lat="43.62529305247002" lon="11.327979209508486"><ele>478.00000000000006</ele><time>2026-03-27T19:26:33Z</time></trkpt><trkpt lat="43.625368866572096" lon="11.328011038951852"><ele>478.00000000000006</ele><time>2026-03-27T19:26:35Z</time></trkpt><trkpt lat="43.625442224221885" lon="11.328033204805292"><ele>478.0</ele><time>2026-03-27T19:26:37Z</time></trkpt><trkpt lat="43.62552023509343" lon="11.328063183552205"><ele>478.00000000000006</ele><time>2026-03-27T19:26:39Z</time></trkpt><trkpt lat="43.62559149602159" lon="11.328056772212323"><ele>478.00000000000006</ele><time>2026-03-27T19:26:42Z</time></trkpt><trkpt lat="43.62565909101802" lon="11.32805023782931"><ele>479.33333333333337</ele><time>2026-03-27T19:26:44Z</time></trkpt><trkpt lat="43.62572527049173" lon="11.32800999483404"><ele>480.6666666666667</ele><time>2026-03-27T19:26:46Z</time></trkpt><trkpt lat="43.62581084847252" lon="11.32798146533569"><ele>482.0</ele><time>2026-03-27T19:26:48Z</time></trkpt><trkpt lat="43.625899241997665" lon="11.328002294749789"><ele>483.33333333333337</ele><time>2026-03-27T19:26:51Z</time></trkpt><trkpt lat="43.62597531206087" lon="11.328056158434421"><ele>484.6666666666667</ele><time>2026-03-27T19:26:53Z</time></trkpt><trkpt lat="43.6260330422535" lon="11.328108964914502"><ele>486.0</ele><time>2026-03-27T19:26:55Z</time></trkpt><trkpt lat="43.62610541175045" lon="11.32813058934323"><ele>491.3333333333333</ele><time>2026-03-27T19:26:57Z</time></trkpt><trkpt lat="43.62619231020219" lon="11.328145568600346"><ele>496.66666666666663</ele><time>2026-03-27T19:27:00Z</time></trkpt><trkpt lat="43.62626449990329" lon="11.328161564886345"><ele>502.0</ele><time>2026-03-27T19:27:02Z</time></trkpt><trkpt lat="43.626332648788804" lon="11.328188708000392"><ele>507.3333333333333</ele><time>2026-03-27T19:27:04Z</time></trkpt><trkpt lat="43.62642469570066" lon="11.328197690688302"><ele>512.6666666666666</ele><time>2026-03-27T19:27:06Z</time></trkpt><trkpt lat="43.62651350238578" lon="11.32820078085299"><ele>518.0</ele><time>2026-03-27T19:27:08Z</time></trkpt><trkpt lat="43.62661291045876" lon="11.32826404044062"><ele>518.0</ele><time>2026-03-27T19:27:10Z</time></trkpt><trkpt lat="43.626671551711226" lon="11.328324267633553"><ele>518.0</ele><time>2026-03-27T19:27:12Z</time></trkpt><trkpt lat="43.62676251265887" lon="11.328342522110928"><ele>518.0</ele><time>2026-03-27T19:27:15Z</time></trkpt><trkpt lat="43.626850233413165" lon="11.328380837942325"><ele>518.0</ele><time>2026-03-27T19:27:17.999Z</time></trkpt><trkpt lat="43.62692630789721" lon="11.328404401800782"><ele>518.0</ele><time>2026-03-27T19:27:19.999Z</time></trkpt><trkpt lat="43.62699001716429" lon="11.328464096247627"><ele>518.0</ele><time>2026-03-27T19:27:22.999Z</time></trkpt><trkpt lat="43.62702631852638" lon="11.328537978340286"><ele>520.1666666666666</ele><time>2026-03-27T19:27:24.999Z</time></trkpt><trkpt lat="43.62707074411418" lon="11.328623649411751"><ele>522.3333333333333</ele><time>2026-03-27T19:27:28.999Z</time></trkpt><trkpt lat="43.627138332875525" lon="11.32864769378774"><ele>524.5</ele><time>2026-03-27T19:27:31.999Z</time></trkpt><trkpt lat="43.62722360539014" lon="11.328675971337114"><ele>526.6666666666666</ele><time>2026-03-27T19:27:36.999Z</time></trkpt><trkpt lat="43.627305244182175" lon="11.328744758361365"><ele>528.8333333333334</ele><time>2026-03-27T19:27:39.999Z</time></trkpt><trkpt lat="43.62738803377675" lon="11.328781445750566"><ele>531.0</ele><time>2026-03-27T19:27:41.999Z</time></trkpt><trkpt lat="43.62747336273301" lon="11.328804624500277"><ele>531.0</ele><time>2026-03-27T19:27:43.999Z</time></trkpt><trkpt lat="43.627591216696146" lon="11.328834061161649"><ele>531.0</ele><time>2026-03-27T19:27:45.999Z</time></trkpt><trkpt lat="43.62766890914749" lon="11.328839732634542"><ele>531.0</ele><time>2026-03-27T19:27:47.999Z</time></trkpt><trkpt lat="43.62773297750499" lon="11.32882806748428"><ele>531.0</ele><time>2026-03-27T19:27:49.999Z</time></trkpt><trkpt lat="43.62777354538519" lon="11.328743333645027"><ele>531.0</ele><time>2026-03-27T19:27:51.999Z</time></trkpt><trkpt lat="43.62783304755822" lon="11.32867747647608"><ele>531.0</ele><time>2026-03-27T19:27:53.999Z</time></trkpt><trkpt lat="43.62789524024741" lon="11.3286354341959"><ele>533.2</ele><time>2026-03-27T19:27:55.999Z</time></trkpt><trkpt lat="43.62796506254251" lon="11.328616928167772"><ele>535.4000000000001</ele><time>2026-03-27T19:27:57.999Z</time></trkpt><trkpt lat="43.62805959387086" lon="11.328594224046359"><ele>537.6</ele><time>2026-03-27T19:27:59.999Z</time></trkpt><trkpt lat="43.62816240585088" lon="11.32854911774091"><ele>539.8000000000001</ele><time>2026-03-27T19:28:01.999Z</time></trkpt><trkpt lat="43.62825912401822" lon="11.3285330993612"><ele>542.0</ele><time>2026-03-27T19:28:03.999Z</time></trkpt><trkpt lat="43.62835913999721" lon="11.328545635680408"><ele>542.0</ele><time>2026-03-27T19:28:05.999Z</time></trkpt><trkpt lat="43.62843545799519" lon="11.32857931606361"><ele>542.0</ele><time>2026-03-27T19:28:07.999Z</time></trkpt><trkpt lat="43.62849921232248" lon="11.328587539824632"><ele>542.0</ele><time>2026-03-27T19:28:08.999Z</time></trkpt><trkpt lat="43.628585972715236" lon="11.328606101848012"><ele>542.0</ele><time>2026-03-27T19:28:10.999Z</time></trkpt><trkpt lat="43.62871199906097" lon="11.328681251184285"><ele>542.0</ele><time>2026-03-27T19:28:12.999Z</time></trkpt><trkpt lat="43.628785593300535" lon="11.328721906420556"><ele>542.0</ele><time>2026-03-27T19:28:13.999Z</time></trkpt><trkpt lat="43.628869585265036" lon="11.328757525079116"><ele>543.2</ele><time>2026-03-27T19:28:15.999Z</time></trkpt><trkpt lat="43.62898057993048" lon="11.328776349565421"><ele>544.4000000000001</ele><time>2026-03-27T19:28:18Z</time></trkpt><trkpt lat="43.6290899976831" lon="11.328752685789606"><ele>545.5999999999999</ele><time>2026-03-27T19:28:20Z</time></trkpt><trkpt lat="43.629189661349734" lon="11.32873863529594"><ele>546.8</ele><time>2026-03-27T19:28:22Z</time></trkpt><trkpt lat="43.62927037436652" lon="11.328728180840134"><ele>548.0</ele><time>2026-03-27T19:28:24Z</time></trkpt><trkpt lat="43.629340875654" lon="11.328719832868616"><ele>548.0000000000001</ele><time>2026-03-27T19:28:26Z</time></trkpt><trkpt lat="43.62941505850171" lon="11.328691629095976"><ele>548.0</ele><time>2026-03-27T19:28:28Z</time></trkpt><trkpt lat="43.629481151010935" lon="11.328679834479688"><ele>548.0</ele><time>2026-03-27T19:28:30Z</time></trkpt><trkpt lat="43.62954526352727" lon="11.328704861463988"><ele>548.0</ele><time>2026-03-27T19:28:32Z</time></trkpt><trkpt lat="43.629612297935005" lon="11.328736602335551"><ele>548.0</ele><time>2026-03-27T19:28:34Z</time></trkpt><trkpt lat="43.62967979457476" lon="11.32878477416821"><ele>548.0000000000001</ele><time>2026-03-27T19:28:36Z</time></trkpt><trkpt lat="43.6297488721255" lon="11.328841379244098"><ele>548.0</ele><time>2026-03-27T19:28:38Z</time></trkpt><trkpt lat="43.62980270169829" lon="11.328909488770543"><ele>552.6666666666666</ele><time>2026-03-27T19:28:40Z</time></trkpt><trkpt lat="43.629887077411965" lon="11.328972565459901"><ele>557.3333333333333</ele><time>2026-03-27T19:28:42Z</time></trkpt><trkpt lat="43.62994922191283" lon="11.329036549484178"><ele>562.0</ele><time>2026-03-27T19:28:44Z</time></trkpt><trkpt lat="43.63000970746922" lon="11.329127537463528"><ele>566.6666666666666</ele><time>2026-03-27T19:28:46Z</time></trkpt><trkpt lat="43.63005676650903" lon="11.32920502813214"><ele>571.3333333333334</ele><time>2026-03-27T19:28:48Z</time></trkpt><trkpt lat="43.63010238947862" lon="11.3292724559841"><ele>576.0</ele><time>2026-03-27T19:28:50Z</time></trkpt><trkpt lat="43.63014824221879" lon="11.329358772311787"><ele>576.0</ele><time>2026-03-27T19:28:52Z</time></trkpt><trkpt lat="43.63018817792178" lon="11.32943407853115"><ele>576.0</ele><time>2026-03-27T19:28:54Z</time></trkpt><trkpt lat="43.630242086909576" lon="11.329524095905583"><ele>576.0</ele><time>2026-03-27T19:28:56Z</time></trkpt><trkpt lat="43.630273880584994" lon="11.329615073958646"><ele>576.0</ele><time>2026-03-27T19:28:58Z</time></trkpt><trkpt lat="43.63035039999211" lon="11.329698600261997"><ele>576.0</ele><time>2026-03-27T19:29:00Z</time></trkpt><trkpt lat="43.63043510649414" lon="11.329722476495562"><ele>576.0</ele><time>2026-03-27T19:29:03Z</time></trkpt><trkpt lat="43.63053379910322" lon="11.329864430551494"><ele>577.3333333333334</ele><time>2026-03-27T19:29:05Z</time></trkpt><trkpt lat="43.63059305651873" lon="11.329987428917004"><ele>578.6666666666666</ele><time>2026-03-27T19:29:06Z</time></trkpt><trkpt lat="43.630647748221925" lon="11.330063931929267"><ele>580.0</ele><time>2026-03-27T19:29:07Z</time></trkpt><trkpt lat="43.63069671842715" lon="11.33017183211645"><ele>581.3333333333333</ele><time>2026-03-27T19:29:09Z</time></trkpt><trkpt lat="43.63070669946901" lon="11.33028403821136"><ele>582.6666666666666</ele><time>2026-03-27T19:29:11Z</time></trkpt><trkpt lat="43.630680688837764" lon="11.33039204081949"><ele>584.0</ele><time>2026-03-27T19:29:13Z</time></trkpt><trkpt lat="43.63062026025471" lon="11.330499095519649"><ele>584.2</ele><time>2026-03-27T19:29:15Z</time></trkpt><trkpt lat="43.63053311198623" lon="11.330612812067399"><ele>584.4</ele><time>2026-03-27T19:29:17Z</time></trkpt><trkpt lat="43.63046559486057" lon="11.33076291333706"><ele>584.6</ele><time>2026-03-27T19:29:19Z</time></trkpt><trkpt lat="43.63042158837963" lon="11.330918978792882"><ele>584.8</ele><time>2026-03-27T19:29:21Z</time></trkpt><trkpt lat="43.63039980749766" lon="11.331014778720789"><ele>585.0</ele><time>2026-03-27T19:29:22Z</time></trkpt><trkpt lat="43.63037263586839" lon="11.33112199205721"><ele>585.0</ele><time>2026-03-27T19:29:22.999Z</time></trkpt><trkpt lat="43.6303193211744" lon="11.331265353203474"><ele>585.0</ele><time>2026-03-27T19:29:24.999Z</time></trkpt><trkpt lat="43.63031003567601" lon="11.331437673080949"><ele>585.0</ele><time>2026-03-27T19:29:26.999Z</time></trkpt><trkpt lat="43.630271969986275" lon="11.331578481188993"><ele>585.0</ele><time>2026-03-27T19:29:28.999Z</time></trkpt><trkpt lat="43.63022362486837" lon="11.33174089314924"><ele>588.2</ele><time>2026-03-27T19:29:30.999Z</time></trkpt><trkpt lat="43.63019411963001" lon="11.331858292780364"><ele>591.4</ele><time>2026-03-27T19:29:31.999Z</time></trkpt><trkpt lat="43.63016683582324" lon="11.332017028925529"><ele>594.6</ele><time>2026-03-27T19:29:33.999Z</time></trkpt><trkpt lat="43.63015229595154" lon="11.332105586340814"><ele>597.8</ele><time>2026-03-27T19:29:34.999Z</time></trkpt><trkpt lat="43.63015122766068" lon="11.332244030972667"><ele>601.0</ele><time>2026-03-27T19:29:36.999Z</time></trkpt><trkpt lat="43.6301234739791" lon="11.33235278231248"><ele>601.2</ele><time>2026-03-27T19:29:38.999Z</time></trkpt><trkpt lat="43.63008131700345" lon="11.332477461196522"><ele>601.4000000000001</ele><time>2026-03-27T19:29:40.999Z</time></trkpt><trkpt lat="43.63006492711387" lon="11.332647596434489"><ele>601.6</ele><time>2026-03-27T19:29:42.999Z</time></trkpt><trkpt lat="43.630059732737216" lon="11.33273548780524"><ele>601.8000000000001</ele><time>2026-03-27T19:29:43.999Z</time></trkpt><trkpt lat="43.63005980234276" lon="11.332867989399896"><ele>602.0</ele><time>2026-03-27T19:29:45.999Z</time></trkpt><trkpt lat="43.63002911320221" lon="11.332964330089055"><ele>601.6</ele><time>2026-03-27T19:29:47.999Z</time></trkpt><trkpt lat="43.62996420612855" lon="11.333087344678644"><ele>601.2</ele><time>2026-03-27T19:29:50.999Z</time></trkpt><trkpt lat="43.629936245905974" lon="11.333194908647561"><ele>600.8</ele><time>2026-03-27T19:29:52.999Z</time></trkpt><trkpt lat="43.62989115596648" lon="11.333296654037621"><ele>600.4</ele><time>2026-03-27T19:29:54.999Z</time></trkpt><trkpt lat="43.62983962019089" lon="11.333409074010707"><ele>600.0</ele><time>2026-03-27T19:29:56.999Z</time></trkpt><trkpt lat="43.6297991042207" lon="11.33351020942124"><ele>600.0</ele><time>2026-03-27T19:29:58.999Z</time></trkpt><trkpt lat="43.62970681023393" lon="11.333615328185878"><ele>600.0</ele><time>2026-03-27T19:30:00.999Z</time></trkpt><trkpt lat="43.62964121055903" lon="11.333677367957911"><ele>600.0</ele><time>2026-03-27T19:30:01.999Z</time></trkpt><trkpt lat="43.62954334664317" lon="11.333729358841769"><ele>600.0</ele><time>2026-03-27T19:30:03.999Z</time></trkpt><trkpt lat="43.629458854583326" lon="11.333755976095649"><ele>600.0</ele><time>2026-03-27T19:30:05.999Z</time></trkpt><trkpt lat="43.62938592369267" lon="11.333801983068042"><ele>600.8</ele><time>2026-03-27T19:30:07.999Z</time></trkpt><trkpt lat="43.62930059807189" lon="11.333859183240557"><ele>601.6</ele><time>2026-03-27T19:30:09.999Z</time></trkpt><trkpt lat="43.62922823322447" lon="11.333912805555446"><ele>602.4</ele><time>2026-03-27T19:30:11.999Z</time></trkpt><trkpt lat="43.62915678464336" lon="11.334009869307346"><ele>603.2</ele><time>2026-03-27T19:30:13.999Z</time></trkpt><trkpt lat="43.629102064937214" lon="11.33408655301916"><ele>604.0</ele><time>2026-03-27T19:30:15.999Z</time></trkpt><trkpt lat="43.62904465679494" lon="11.33419610257205"><ele>604.0</ele><time>2026-03-27T19:30:17.999Z</time></trkpt><trkpt lat="43.62900221714325" lon="11.334262999662002"><ele>604.0</ele><time>2026-03-27T19:30:18.999Z</time></trkpt><trkpt lat="43.62892659117572" lon="11.334327686417911"><ele>604.0</ele><time>2026-03-27T19:30:20.999Z</time></trkpt><trkpt lat="43.62883957193724" lon="11.334393113457487"><ele>604.0</ele><time>2026-03-27T19:30:22.999Z</time></trkpt><trkpt lat="43.62875575104349" lon="11.334439840813896"><ele>604.0</ele><time>2026-03-27T19:30:25Z</time></trkpt><trkpt lat="43.628657940559286" lon="11.334508559651903"><ele>605.0</ele><time>2026-03-27T19:30:27Z</time></trkpt><trkpt lat="43.628588076504066" lon="11.334577974737543"><ele>606.0</ele><time>2026-03-27T19:30:29Z</time></trkpt><trkpt lat="43.62851589281301" lon="11.334674583506159"><ele>607.0</ele><time>2026-03-27T19:30:31Z</time></trkpt><trkpt lat="43.628432594167045" lon="11.334750531775265"><ele>608.0</ele><time>2026-03-27T19:30:33Z</time></trkpt><trkpt lat="43.62835007996775" lon="11.334867592873733"><ele>609.0</ele><time>2026-03-27T19:30:35Z</time></trkpt><trkpt lat="43.62826679888397" lon="11.334951010433706"><ele>609.0</ele><time>2026-03-27T19:30:37Z</time></trkpt><trkpt lat="43.62819493774595" lon="11.335025376378896"><ele>609.0</ele><time>2026-03-27T19:30:39Z</time></trkpt><trkpt lat="43.6281211346839" lon="11.335053774456506"><ele>609.0</ele><time>2026-03-27T19:30:41Z</time></trkpt><trkpt lat="43.628058606935895" lon="11.335123429097129"><ele>609.0</ele><time>2026-03-27T19:30:43Z</time></trkpt><trkpt lat="43.62801861038184" lon="11.335203796888909"><ele>609.0</ele><time>2026-03-27T19:30:45Z</time></trkpt><trkpt lat="43.627970052884336" lon="11.33527173453042"><ele>609.0</ele><time>2026-03-27T19:30:48Z</time></trkpt><trkpt lat="43.627924762623074" lon="11.335351426666017"><ele>609.0</ele><time>2026-03-27T19:30:51Z</time></trkpt><trkpt lat="43.627859753422115" lon="11.335422521188947"><ele>609.0</ele><time>2026-03-27T19:30:54Z</time></trkpt><trkpt lat="43.62781235664766" lon="11.335489482507969"><ele>609.0</ele><time>2026-03-27T19:30:56Z</time></trkpt><trkpt lat="43.62775914450736" lon="11.335556068640214"><ele>609.0</ele><time>2026-03-27T19:30:58Z</time></trkpt><trkpt lat="43.62771283968265" lon="11.335625243814036"><ele>609.0</ele><time>2026-03-27T19:31:01Z</time></trkpt><trkpt lat="43.627646410556586" lon="11.335708506442863"><ele>609.0</ele><time>2026-03-27T19:31:05Z</time></trkpt><trkpt lat="43.62757824825175" lon="11.335778303608617"><ele>608.8</ele><time>2026-03-27T19:31:07Z</time></trkpt><trkpt lat="43.62749005186103" lon="11.335814810931499"><ele>608.5999999999999</ele><time>2026-03-27T19:31:09Z</time></trkpt><trkpt lat="43.627414685898515" lon="11.335854110600872"><ele>608.4</ele><time>2026-03-27T19:31:11Z</time></trkpt><trkpt lat="43.627306767190426" lon="11.335912127056469"><ele>608.1999999999999</ele><time>2026-03-27T19:31:13Z</time></trkpt><trkpt lat="43.627218693795236" lon="11.335939042388882"><ele>608.0</ele><time>2026-03-27T19:31:15Z</time></trkpt><trkpt lat="43.627146215043894" lon="11.335900499379798"><ele>608.0</ele><time>2026-03-27T19:31:17Z</time></trkpt><trkpt lat="43.627050839208295" lon="11.335873209831762"><ele>608.0</ele><time>2026-03-27T19:31:19Z</time></trkpt><trkpt lat="43.626948605388456" lon="11.33586989831811"><ele>608.0</ele><time>2026-03-27T19:31:21Z</time></trkpt><trkpt lat="43.626838273527945" lon="11.33593364940957"><ele>608.0</ele><time>2026-03-27T19:31:23Z</time></trkpt><trkpt lat="43.62674028148493" lon="11.335983352237317"><ele>608.0</ele><time>2026-03-27T19:31:25Z</time></trkpt><trkpt lat="43.62664316128754" lon="11.33603565553624"><ele>607.1999999999999</ele><time>2026-03-27T19:31:27Z</time></trkpt><trkpt lat="43.62652632042248" lon="11.336106202901268"><ele>606.4</ele><time>2026-03-27T19:31:29Z</time></trkpt><trkpt lat="43.626432207416656" lon="11.336152841028282"><ele>605.5999999999999</ele><time>2026-03-27T19:31:31Z</time></trkpt><trkpt lat="43.62634939654113" lon="11.336209277940611"><ele>604.8</ele><time>2026-03-27T19:31:33Z</time></trkpt><trkpt lat="43.62625928081474" lon="11.336231310759649"><ele>604.0</ele><time>2026-03-27T19:31:35Z</time></trkpt><trkpt lat="43.62616765328448" lon="11.336279995464979"><ele>604.8333333333334</ele><time>2026-03-27T19:31:37Z</time></trkpt><trkpt lat="43.626083871136586" lon="11.336321182677288"><ele>605.6666666666667</ele><time>2026-03-27T19:31:39Z</time></trkpt><trkpt lat="43.625987833674984" lon="11.336331117866825"><ele>606.5</ele><time>2026-03-27T19:31:41Z</time></trkpt><trkpt lat="43.62588707229178" lon="11.336365154947552"><ele>607.3333333333334</ele><time>2026-03-27T19:31:43Z</time></trkpt><trkpt lat="43.62582026082132" lon="11.33640424078579"><ele>608.1666666666666</ele><time>2026-03-27T19:31:44Z</time></trkpt><trkpt lat="43.62576814354194" lon="11.33645565253073"><ele>609.0</ele><time>2026-03-27T19:31:44.999Z</time></trkpt><trkpt lat="43.62570661718249" lon="11.336532066855462"><ele>609.0</ele><time>2026-03-27T19:31:46.999Z</time></trkpt><trkpt lat="43.62563470645591" lon="11.336570570462934"><ele>609.0</ele><time>2026-03-27T19:31:48.999Z</time></trkpt><trkpt lat="43.625574172451024" lon="11.336606142211371"><ele>609.0</ele><time>2026-03-27T19:31:49.999Z</time></trkpt><trkpt lat="43.62550616316209" lon="11.336642278820927"><ele>609.0</ele><time>2026-03-27T19:31:50.999Z</time></trkpt><trkpt lat="43.625429006013995" lon="11.336657089377562"><ele>609.0</ele><time>2026-03-27T19:31:52.999Z</time></trkpt><trkpt lat="43.625317484336506" lon="11.336622375855235"><ele>609.0</ele><time>2026-03-27T19:31:54.999Z</time></trkpt><trkpt lat="43.625207736719126" lon="11.33665024536075"><ele>607.6666666666666</ele><time>2026-03-27T19:31:56.999Z</time></trkpt><trkpt lat="43.625112858755685" lon="11.336693307856157"><ele>606.3333333333334</ele><time>2026-03-27T19:31:58.999Z</time></trkpt><trkpt lat="43.62505123301928" lon="11.336770682654743"><ele>605.0</ele><time>2026-03-27T19:32:00.999Z</time></trkpt><trkpt lat="43.625013358416325" lon="11.336849832990112"><ele>603.6666666666667</ele><time>2026-03-27T19:32:02.999Z</time></trkpt><trkpt lat="43.62494851780039" lon="11.336972130228828"><ele>602.3333333333334</ele><time>2026-03-27T19:32:04.999Z</time></trkpt><trkpt lat="43.62488793093155" lon="11.337035833020153"><ele>601.0</ele><time>2026-03-27T19:32:05.999Z</time></trkpt><trkpt lat="43.62480461996323" lon="11.337084783887022"><ele>601.0</ele><time>2026-03-27T19:32:07.999Z</time></trkpt><trkpt lat="43.62470333465285" lon="11.337109327934098"><ele>601.0</ele><time>2026-03-27T19:32:09.999Z</time></trkpt><trkpt lat="43.624625687167544" lon="11.337156799803365"><ele>601.0</ele><time>2026-03-27T19:32:11.999Z</time></trkpt><trkpt lat="43.624559191705096" lon="11.337235490419578"><ele>601.0</ele><time>2026-03-27T19:32:13.999Z</time></trkpt><trkpt lat="43.62449926011262" lon="11.337323683795137"><ele>601.0</ele><time>2026-03-27T19:32:16.999Z</time></trkpt><trkpt lat="43.62445640767161" lon="11.33743794828364"><ele>604.1666666666667</ele><time>2026-03-27T19:32:18.999Z</time></trkpt><trkpt lat="43.6244165664699" lon="11.33751544166991"><ele>607.3333333333334</ele><time>2026-03-27T19:32:19.999Z</time></trkpt><trkpt lat="43.62436151452585" lon="11.337592815311782"><ele>610.5</ele><time>2026-03-27T19:32:21.999Z</time></trkpt><trkpt lat="43.62433120172274" lon="11.337724998458386"><ele>613.6666666666666</ele><time>2026-03-27T19:32:24.999Z</time></trkpt><trkpt lat="43.62426688159889" lon="11.337785391515046"><ele>616.8333333333333</ele><time>2026-03-27T19:32:27.999Z</time></trkpt><trkpt lat="43.62418759453211" lon="11.33775789977329"><ele>620.0</ele><time>2026-03-27T19:32:31Z</time></trkpt><trkpt lat="43.62412182646706" lon="11.3377544040035"><ele>620.0</ele><time>2026-03-27T19:32:33Z</time></trkpt><trkpt lat="43.624024934228075" lon="11.337725958556224"><ele>620.0</ele><time>2026-03-27T19:32:35Z</time></trkpt><trkpt lat="43.62396156177202" lon="11.337655575710961"><ele>620.0</ele><time>2026-03-27T19:32:37Z</time></trkpt><trkpt lat="43.623913225702864" lon="11.337590216953386"><ele>620.0</ele><time>2026-03-27T19:32:39Z</time></trkpt><trkpt lat="43.6238684645771" lon="11.337517169591404"><ele>620.0</ele><time>2026-03-27T19:32:41Z</time></trkpt><trkpt lat="43.623825568551425" lon="11.337444173509944"><ele>620.0</ele><time>2026-03-27T19:32:43Z</time></trkpt><trkpt lat="43.62376257134656" lon="11.33737679067035"><ele>620.0</ele><time>2026-03-27T19:32:45Z</time></trkpt><trkpt lat="43.62371135249362" lon="11.337323762940972"><ele>620.0</ele><time>2026-03-27T19:32:47Z</time></trkpt><trkpt lat="43.62367338609586" lon="11.337237925435506"><ele>620.0</ele><time>2026-03-27T19:32:49Z</time></trkpt><trkpt lat="43.62365899401135" lon="11.337152470515448"><ele>620.0</ele><time>2026-03-27T19:32:51Z</time></trkpt><trkpt lat="43.62358821577019" lon="11.337141970839685"><ele>620.0</ele><time>2026-03-27T19:32:53Z</time></trkpt><trkpt lat="43.623502923665406" lon="11.337167737601494"><ele>620.0</ele><time>2026-03-27T19:32:55Z</time></trkpt><trkpt lat="43.623434214653685" lon="11.337179867721096"><ele>620.0</ele><time>2026-03-27T19:32:56Z</time></trkpt><trkpt lat="43.6233450162587" lon="11.33718961530013"><ele>617.6</ele><time>2026-03-27T19:32:58Z</time></trkpt><trkpt lat="43.62325658604765" lon="11.337126521935348"><ele>615.2</ele><time>2026-03-27T19:33:00Z</time></trkpt><trkpt lat="43.62318398753458" lon="11.33707001811884"><ele>612.8</ele><time>2026-03-27T19:33:02Z</time></trkpt><trkpt lat="43.623062690619" lon="11.337028462995125"><ele>610.4</ele><time>2026-03-27T19:33:04Z</time></trkpt><trkpt lat="43.622998838105715" lon="11.337006889269114"><ele>608.0</ele><time>2026-03-27T19:33:05Z</time></trkpt><trkpt lat="43.622909062289615" lon="11.33695429067173"><ele>608.0</ele><time>2026-03-27T19:33:07Z</time></trkpt><trkpt lat="43.622815010900766" lon="11.3369074460773"><ele>608.0</ele><time>2026-03-27T19:33:09Z</time></trkpt><trkpt lat="43.62271964771176" lon="11.336885029182337"><ele>608.0</ele><time>2026-03-27T19:33:11Z</time></trkpt><trkpt lat="43.622655695572824" lon="11.33687598689663"><ele>608.0</ele><time>2026-03-27T19:33:12Z</time></trkpt><trkpt lat="43.6225566063523" lon="11.336859067329264"><ele>608.0</ele><time>2026-03-27T19:33:14Z</time></trkpt><trkpt lat="43.62247991298515" lon="11.33682955773846"><ele>608.0</ele><time>2026-03-27T19:33:16Z</time></trkpt><trkpt lat="43.62239246296073" lon="11.336827257305451"><ele>609.1666666666666</ele><time>2026-03-27T19:33:18Z</time></trkpt><trkpt lat="43.62232469698672" lon="11.336854570352742"><ele>610.3333333333333</ele><time>2026-03-27T19:33:20Z</time></trkpt><trkpt lat="43.62224307730358" lon="11.33689861276946"><ele>611.5</ele><time>2026-03-27T19:33:22Z</time></trkpt><trkpt lat="43.62215247875515" lon="11.336876737053297"><ele>612.6666666666666</ele><time>2026-03-27T19:33:24Z</time></trkpt><trkpt lat="43.622081027156014" lon="11.336855218746823"><ele>613.8333333333334</ele><time>2026-03-27T19:33:26Z</time></trkpt><trkpt lat="43.62201275324425" lon="11.336864224072738"><ele>615.0</ele><time>2026-03-27T19:33:40Z</time></trkpt><trkpt lat="43.62193943909148" lon="11.336906350413146"><ele>615.0</ele><time>2026-03-27T19:33:42Z</time></trkpt><trkpt lat="43.62186424036537" lon="11.336947237987324"><ele>615.0</ele><time>2026-03-27T19:33:44Z</time></trkpt><trkpt lat="43.6217999728055" lon="11.336981568316968"><ele>615.0</ele><time>2026-03-27T19:33:46Z</time></trkpt><trkpt lat="43.62171126628264" lon="11.337081517475605"><ele>615.0</ele><time>2026-03-27T19:33:48Z</time></trkpt><trkpt lat="43.6216546965357" lon="11.337190087261593"><ele>615.0</ele><time>2026-03-27T19:33:50Z</time></trkpt><trkpt lat="43.62164016762086" lon="11.337302237757282"><ele>615.0</ele><time>2026-03-27T19:33:52Z</time></trkpt><trkpt lat="43.62161950271094" lon="11.337409549651989"><ele>616.5</ele><time>2026-03-27T19:33:53.999Z</time></trkpt><trkpt lat="43.62157923555782" lon="11.337484330199372"><ele>618.0</ele><time>2026-03-27T19:33:55.999Z</time></trkpt><trkpt lat="43.62149535454542" lon="11.33760040432361"><ele>619.5</ele><time>2026-03-27T19:33:57.999Z</time></trkpt><trkpt lat="43.621405023237905" lon="11.337623242822696"><ele>621.0</ele><time>2026-03-27T19:33:59.999Z</time></trkpt><trkpt lat="43.621299647480086" lon="11.337644419533651"><ele>622.5</ele><time>2026-03-27T19:34:01.999Z</time></trkpt><trkpt lat="43.62124403484257" lon="11.33768939902725"><ele>624.0</ele><time>2026-03-27T19:34:02.999Z</time></trkpt><trkpt lat="43.621148193318355" lon="11.337775715174825"><ele>624.0</ele><time>2026-03-27T19:34:04.999Z</time></trkpt><trkpt lat="43.62105685018237" lon="11.337802433531106"><ele>624.0</ele><time>2026-03-27T19:34:06.999Z</time></trkpt><trkpt lat="43.620985748581205" lon="11.337747898672056"><ele>624.0</ele><time>2026-03-27T19:34:08.999Z</time></trkpt><trkpt lat="43.62088496469709" lon="11.337723131538977"><ele>624.0</ele><time>2026-03-27T19:34:10.999Z</time></trkpt><trkpt lat="43.62081116585712" lon="11.337697714821843"><ele>624.0</ele><time>2026-03-27T19:34:12.999Z</time></trkpt><trkpt lat="43.62072342283177" lon="11.337646932961182"><ele>624.0</ele><time>2026-03-27T19:34:14.999Z</time></trkpt><trkpt lat="43.620626247777125" lon="11.337612867169653"><ele>624.0</ele><time>2026-03-27T19:34:16.999Z</time></trkpt><trkpt lat="43.62052476370918" lon="11.337611339956197"><ele>624.0</ele><time>2026-03-27T19:34:18.999Z</time></trkpt><trkpt lat="43.620422212402055" lon="11.337590926977235"><ele>624.0</ele><time>2026-03-27T19:34:20.999Z</time></trkpt><trkpt lat="43.62031026505491" lon="11.337584449676363"><ele>624.0</ele><time>2026-03-27T19:34:22.999Z</time></trkpt><trkpt lat="43.620219007563776" lon="11.337559695923442"><ele>624.0</ele><time>2026-03-27T19:34:24.999Z</time></trkpt><trkpt lat="43.620115473695265" lon="11.33755082978487"><ele>623.8</ele><time>2026-03-27T19:34:26.999Z</time></trkpt><trkpt lat="43.62004375500766" lon="11.337604887714066"><ele>623.5999999999999</ele><time>2026-03-27T19:34:28.999Z</time></trkpt><trkpt lat="43.61994540235337" lon="11.337629431329908"><ele>623.4</ele><time>2026-03-27T19:34:30.999Z</time></trkpt><trkpt lat="43.619834856758125" lon="11.337650716462676"><ele>623.1999999999999</ele><time>2026-03-27T19:34:32.999Z</time></trkpt><trkpt lat="43.61972192324232" lon="11.33765295590523"><ele>623.0</ele><time>2026-03-27T19:34:34.999Z</time></trkpt><trkpt lat="43.61965506264398" lon="11.337647747993481"><ele>623.0</ele><time>2026-03-27T19:34:36Z</time></trkpt><trkpt lat="43.619591531620706" lon="11.337654536491993"><ele>623.0</ele><time>2026-03-27T19:34:37Z</time></trkpt><trkpt lat="43.619505836185866" lon="11.33769919043029"><ele>623.0</ele><time>2026-03-27T19:34:39Z</time></trkpt><trkpt lat="43.619444454672" lon="11.337718580416357"><ele>623.0</ele><time>2026-03-27T19:35:01Z</time></trkpt><trkpt lat="43.6193594740724" lon="11.337745396771579"><ele>623.0</ele><time>2026-03-27T19:35:03Z</time></trkpt><trkpt lat="43.61928408435775" lon="11.337807681480028"><ele>623.0</ele><time>2026-03-27T19:35:05Z</time></trkpt><trkpt lat="43.619219165844505" lon="11.337879105630552"><ele>622.1999999999999</ele><time>2026-03-27T19:35:07Z</time></trkpt><trkpt lat="43.619163851961" lon="11.337972781539015"><ele>621.4</ele><time>2026-03-27T19:35:09Z</time></trkpt><trkpt lat="43.61907844543396" lon="11.338012077319327"><ele>620.5999999999999</ele><time>2026-03-27T19:35:11Z</time></trkpt><trkpt lat="43.61901965699101" lon="11.338049441639638"><ele>619.8</ele><time>2026-03-27T19:35:12Z</time></trkpt><trkpt lat="43.618953073012335" lon="11.338159537273802"><ele>619.0</ele><time>2026-03-27T19:35:14Z</time></trkpt><trkpt lat="43.61888576399178" lon="11.338290028498552"><ele>621.6666666666667</ele><time>2026-03-27T19:35:16Z</time></trkpt><trkpt lat="43.61883510087328" lon="11.338350889738708"><ele>624.3333333333334</ele><time>2026-03-27T19:35:18Z</time></trkpt><trkpt lat="43.61878416038008" lon="11.338476919438284"><ele>627.0</ele><time>2026-03-27T19:40:34.999Z</time></trkpt><trkpt lat="43.61875509459817" lon="11.338604955523897"><ele>629.6666666666666</ele><time>2026-03-27T19:40:37.999Z</time></trkpt><trkpt lat="43.61875072473826" lon="11.338702795900693"><ele>632.3333333333333</ele><time>2026-03-27T19:40:39.999Z</time></trkpt><trkpt lat="43.61877019361581" lon="11.33884868063627"><ele>635.0</ele><time>2026-03-27T19:40:42.999Z</time></trkpt><trkpt lat="43.61879069734296" lon="11.338950664890326"><ele>635.8333333333333</ele><time>2026-03-27T19:40:43.999Z</time></trkpt><trkpt lat="43.618815035850744" lon="11.339046092350427"><ele>636.6666666666666</ele><time>2026-03-27T19:40:44.999Z</time></trkpt><trkpt lat="43.61886297588399" lon="11.339154942119134"><ele>637.5</ele><time>2026-03-27T19:40:46.999Z</time></trkpt><trkpt lat="43.61892968609917" lon="11.339223019553964"><ele>638.3333333333334</ele><time>2026-03-27T19:40:48.999Z</time></trkpt><trkpt lat="43.61894579501118" lon="11.33931904395401"><ele>639.1666666666667</ele><time>2026-03-27T19:40:50.999Z</time></trkpt><trkpt lat="43.61896572590794" lon="11.339427750599484"><ele>640.0</ele><time>2026-03-27T19:40:53Z</time></trkpt><trkpt lat="43.61894937978898" lon="11.339574112184241"><ele>640.0</ele><time>2026-03-27T19:40:56Z</time></trkpt><trkpt lat="43.61892734428326" lon="11.339702020476405"><ele>640.0</ele><time>2026-03-27T19:40:58Z</time></trkpt><trkpt lat="43.618874521294146" lon="11.339814261917807"><ele>640.0</ele><time>2026-03-27T19:41:00Z</time></trkpt><trkpt lat="43.618818233714194" lon="11.33993024079786"><ele>640.0</ele><time>2026-03-27T19:41:02Z</time></trkpt><trkpt lat="43.61879786123998" lon="11.340015547487155"><ele>640.0</ele><time>2026-03-27T19:41:04Z</time></trkpt><trkpt lat="43.6187591251888" lon="11.340084508747562"><ele>640.0</ele><time>2026-03-27T19:41:05Z</time></trkpt><trkpt lat="43.618713863436824" lon="11.340176608070138"><ele>640.25</ele><time>2026-03-27T19:41:07Z</time></trkpt><trkpt lat="43.61868867999207" lon="11.34030851611497"><ele>640.5</ele><time>2026-03-27T19:41:09Z</time></trkpt><trkpt lat="43.61863379465256" lon="11.34048535606208"><ele>640.75</ele><time>2026-03-27T19:41:11Z</time></trkpt><trkpt lat="43.618616762710985" lon="11.340626018114177"><ele>641.0</ele><time>2026-03-27T19:41:13Z</time></trkpt><trkpt lat="43.61862335769775" lon="11.340792024759851"><ele>639.8</ele><time>2026-03-27T19:41:15Z</time></trkpt><trkpt lat="43.618595675834705" lon="11.34094936860583"><ele>638.5999999999999</ele><time>2026-03-27T19:41:17Z</time></trkpt><trkpt lat="43.61857852822804" lon="11.341094044604224"><ele>637.4</ele><time>2026-03-27T19:41:19Z</time></trkpt><trkpt lat="43.618557895130415" lon="11.341244373649227"><ele>636.2</ele><time>2026-03-27T19:41:21Z</time></trkpt><trkpt lat="43.61853524601223" lon="11.341366340311502"><ele>635.0</ele><time>2026-03-27T19:41:23Z</time></trkpt><trkpt lat="43.61851463297859" lon="11.341506739621899"><ele>635.0</ele><time>2026-03-27T19:41:25Z</time></trkpt><trkpt lat="43.618539965526246" lon="11.341598737571355"><ele>635.0</ele><time>2026-03-27T19:41:26Z</time></trkpt><trkpt lat="43.6184855297562" lon="11.341731166798139"><ele>635.0</ele><time>2026-03-27T19:41:28Z</time></trkpt><trkpt lat="43.618455724646104" lon="11.341867849740046"><ele>635.0</ele><time>2026-03-27T19:41:30Z</time></trkpt><trkpt lat="43.618412032731825" lon="11.341968717357512"><ele>635.0</ele><time>2026-03-27T19:41:32Z</time></trkpt><trkpt lat="43.618347187695804" lon="11.342073189842184"><ele>635.4</ele><time>2026-03-27T19:41:34Z</time></trkpt><trkpt lat="43.61829527093805" lon="11.342219438730238"><ele>635.8</ele><time>2026-03-27T19:41:36Z</time></trkpt><trkpt lat="43.618246501038406" lon="11.342288320886157"><ele>636.2</ele><time>2026-03-27T19:41:38Z</time></trkpt><trkpt lat="43.61817524510471" lon="11.342368738454779"><ele>636.6</ele><time>2026-03-27T19:41:40Z</time></trkpt><trkpt lat="43.61810903745301" lon="11.342461982032411"><ele>637.0</ele><time>2026-03-27T19:41:42Z</time></trkpt><trkpt lat="43.61805212172633" lon="11.342572900977807"><ele>637.0</ele><time>2026-03-27T19:41:44Z</time></trkpt><trkpt lat="43.61803386053128" lon="11.342687280059465"><ele>637.0</ele><time>2026-03-27T19:41:46Z</time></trkpt><trkpt lat="43.61797523960723" lon="11.34281113461181"><ele>637.0</ele><time>2026-03-27T19:41:48Z</time></trkpt><trkpt lat="43.617910413930346" lon="11.342894798657655"><ele>637.0</ele><time>2026-03-27T19:41:50Z</time></trkpt><trkpt lat="43.61782369751712" lon="11.34293572886988"><ele>637.0</ele><time>2026-03-27T19:41:52Z</time></trkpt><trkpt lat="43.617734566630205" lon="11.343021366701464"><ele>638.0</ele><time>2026-03-27T19:41:54Z</time></trkpt><trkpt lat="43.617645022948345" lon="11.343080895004455"><ele>639.0</ele><time>2026-03-27T19:41:56Z</time></trkpt><trkpt lat="43.61757533071934" lon="11.343157260038387"><ele>640.0</ele><time>2026-03-27T19:41:58Z</time></trkpt><trkpt lat="43.6175194588376" lon="11.343227006541335"><ele>641.0</ele><time>2026-03-27T19:42:00Z</time></trkpt><trkpt lat="43.61745615635035" lon="11.343290151072765"><ele>642.0</ele><time>2026-03-27T19:42:02Z</time></trkpt><trkpt lat="43.61737456416974" lon="11.343325690529884"><ele>643.0</ele><time>2026-03-27T19:42:04Z</time></trkpt><trkpt lat="43.61732018415032" lon="11.343380778552866"><ele>643.0</ele><time>2026-03-27T19:42:05Z</time></trkpt><trkpt lat="43.617260978381054" lon="11.343454987296004"><ele>643.0</ele><time>2026-03-27T19:42:07Z</time></trkpt><trkpt lat="43.61719209932247" lon="11.343535670664538"><ele>643.0</ele><time>2026-03-27T19:42:09Z</time></trkpt><trkpt lat="43.61709832776861" lon="11.343525352122498"><ele>643.0</ele><time>2026-03-27T19:42:11Z</time></trkpt><trkpt lat="43.61703293973139" lon="11.3435439864102"><ele>643.0</ele><time>2026-03-27T19:42:12Z</time></trkpt><trkpt lat="43.61693749120637" lon="11.343535849602093"><ele>643.0</ele><time>2026-03-27T19:42:13Z</time></trkpt><trkpt lat="43.616854954240836" lon="11.343587509195006"><ele>642.6666666666667</ele><time>2026-03-27T19:42:15Z</time></trkpt><trkpt lat="43.6167900567383" lon="11.343636147544522"><ele>642.3333333333334</ele><time>2026-03-27T19:42:16Z</time></trkpt><trkpt lat="43.61673347890745" lon="11.343683861697796"><ele>642.0</ele><time>2026-03-27T19:42:17Z</time></trkpt><trkpt lat="43.616631380247995" lon="11.343723293425349"><ele>641.6666666666666</ele><time>2026-03-27T19:42:18.999Z</time></trkpt><trkpt lat="43.616561173540106" lon="11.343796828212085"><ele>641.3333333333333</ele><time>2026-03-27T19:42:20.999Z</time></trkpt><trkpt lat="43.616515041731375" lon="11.343880649306818"><ele>641.0</ele><time>2026-03-27T19:42:22.999Z</time></trkpt><trkpt lat="43.61645482458942" lon="11.343923097542307"><ele>642.0</ele><time>2026-03-27T19:42:24.999Z</time></trkpt><trkpt lat="43.61638881156404" lon="11.344024380275213"><ele>643.0</ele><time>2026-03-27T19:42:26.999Z</time></trkpt><trkpt lat="43.61636001138686" lon="11.3441312977071"><ele>644.0</ele><time>2026-03-27T19:42:28.999Z</time></trkpt><trkpt lat="43.616300703968875" lon="11.344269644247603"><ele>645.0</ele><time>2026-03-27T19:42:30.999Z</time></trkpt><trkpt lat="43.61626176670279" lon="11.344361896009799"><ele>646.0</ele><time>2026-03-27T19:42:32.999Z</time></trkpt><trkpt lat="43.61617692463478" lon="11.34442878461143"><ele>646.1666666666667</ele><time>2026-03-27T19:42:35.999Z</time></trkpt><trkpt lat="43.61609719987168" lon="11.344501423064933"><ele>646.3333333333334</ele><time>2026-03-27T19:42:37.999Z</time></trkpt><trkpt lat="43.616012490335834" lon="11.34452684419072"><ele>646.5</ele><time>2026-03-27T19:42:39.999Z</time></trkpt><trkpt lat="43.6159462030392" lon="11.344611719888766"><ele>646.6666666666666</ele><time>2026-03-27T19:42:41.999Z</time></trkpt><trkpt lat="43.61587761912793" lon="11.344683402010899"><ele>646.8333333333333</ele><time>2026-03-27T19:42:43.999Z</time></trkpt><trkpt lat="43.61580416021569" lon="11.344725067016368"><ele>647.0</ele><time>2026-03-27T19:42:46.999Z</time></trkpt><trkpt lat="43.615734369007875" lon="11.344726305745285"><ele>648.0</ele><time>2026-03-27T19:42:48.999Z</time></trkpt><trkpt lat="43.61565775545102" lon="11.344756889529059"><ele>649.0</ele><time>2026-03-27T19:42:50.999Z</time></trkpt><trkpt lat="43.61562696220531" lon="11.344840429321957"><ele>650.0</ele><time>2026-03-27T19:42:52.999Z</time></trkpt><trkpt lat="43.61557607170656" lon="11.344907926963725"><ele>651.0</ele><time>2026-03-27T19:42:54.999Z</time></trkpt><trkpt lat="43.615481703218485" lon="11.344971273236604"><ele>652.0</ele><time>2026-03-27T19:42:56.999Z</time></trkpt><trkpt lat="43.615421472339804" lon="11.345022779285676"><ele>653.0</ele><time>2026-03-27T19:42:59Z</time></trkpt><trkpt lat="43.615374649185114" lon="11.34508984183248"><ele>654.3333333333333</ele><time>2026-03-27T19:43:01Z</time></trkpt><trkpt lat="43.6153036349399" lon="11.345137413401474"><ele>655.6666666666666</ele><time>2026-03-27T19:43:03Z</time></trkpt><trkpt lat="43.61523954120891" lon="11.345176580685536"><ele>657.0</ele><time>2026-03-27T19:43:05Z</time></trkpt><trkpt lat="43.615181153590505" lon="11.345238454801104"><ele>658.3333333333334</ele><time>2026-03-27T19:43:07Z</time></trkpt><trkpt lat="43.61511545772158" lon="11.345238763520653"><ele>659.6666666666667</ele><time>2026-03-27T19:43:09Z</time></trkpt><trkpt lat="43.61505957385015" lon="11.345315222136286"><ele>661.0</ele><time>2026-03-27T19:43:12Z</time></trkpt><trkpt lat="43.614980534132684" lon="11.345384588598254"><ele>661.0</ele><time>2026-03-27T19:43:15Z</time></trkpt><trkpt lat="43.61491017446628" lon="11.345430036864258"><ele>661.0</ele><time>2026-03-27T19:43:17Z</time></trkpt><trkpt lat="43.614868089005164" lon="11.345504291383206"><ele>661.0</ele><time>2026-03-27T19:43:20Z</time></trkpt><trkpt lat="43.61481761482705" lon="11.345593832335277"><ele>661.0</ele><time>2026-03-27T19:43:22Z</time></trkpt><trkpt lat="43.61474392384464" lon="11.34565170218861"><ele>661.0</ele><time>2026-03-27T19:43:24Z</time></trkpt><trkpt lat="43.61467138283597" lon="11.345720916401692"><ele>661.0</ele><time>2026-03-27T19:43:26Z</time></trkpt><trkpt lat="43.61460715792799" lon="11.34575995500184"><ele>662.3333333333334</ele><time>2026-03-27T19:43:28Z</time></trkpt><trkpt lat="43.6145512448401" lon="11.345814109730814"><ele>663.6666666666667</ele><time>2026-03-27T19:43:30Z</time></trkpt><trkpt lat="43.61447512192034" lon="11.345918166819004"><ele>665.0</ele><time>2026-03-27T19:43:32Z</time></trkpt><trkpt lat="43.614423932448965" lon="11.3460333363473"><ele>666.3333333333334</ele><time>2026-03-27T19:43:34Z</time></trkpt><trkpt lat="43.6143975448725" lon="11.346153529958572"><ele>667.6666666666666</ele><time>2026-03-27T19:43:36Z</time></trkpt><trkpt lat="43.61434483110365" lon="11.34622697823257"><ele>669.0</ele><time>2026-03-27T19:43:38Z</time></trkpt><trkpt lat="43.614259342083116" lon="11.346291252726417"><ele>670.2</ele><time>2026-03-27T19:43:40Z</time></trkpt><trkpt lat="43.61417213047313" lon="11.346245893126417"><ele>671.4000000000001</ele><time>2026-03-27T19:43:42Z</time></trkpt><trkpt lat="43.61409041948179" lon="11.346308450011746"><ele>672.6</ele><time>2026-03-27T19:43:44Z</time></trkpt><trkpt lat="43.613984977212205" lon="11.346299541961528"><ele>673.8</ele><time>2026-03-27T19:43:46Z</time></trkpt><trkpt lat="43.61386917647871" lon="11.346308912727677"><ele>675.0</ele><time>2026-03-27T19:43:48Z</time></trkpt><trkpt lat="43.61380555784519" lon="11.34631745364411"><ele>675.0</ele><time>2026-03-27T19:43:49Z</time></trkpt><trkpt lat="43.61370489657444" lon="11.346321487402927"><ele>675.0</ele><time>2026-03-27T19:43:51Z</time></trkpt><trkpt lat="43.61361594453103" lon="11.346351700907539"><ele>675.0</ele><time>2026-03-27T19:43:53Z</time></trkpt><trkpt lat="43.6135444044144" lon="11.346407786320762"><ele>675.0</ele><time>2026-03-27T19:43:55Z</time></trkpt><trkpt lat="43.61347116515074" lon="11.346492236777296"><ele>675.0</ele><time>2026-03-27T19:43:57Z</time></trkpt><trkpt lat="43.613392959535076" lon="11.346607677589843"><ele>676.4</ele><time>2026-03-27T19:43:59Z</time></trkpt><trkpt lat="43.61330747453608" lon="11.346687378639922"><ele>677.8</ele><time>2026-03-27T19:44:01Z</time></trkpt><trkpt lat="43.613219074442725" lon="11.346771554860092"><ele>679.2</ele><time>2026-03-27T19:44:03Z</time></trkpt><trkpt lat="43.61311583401388" lon="11.346854985232728"><ele>680.6</ele><time>2026-03-27T19:44:05Z</time></trkpt><trkpt lat="43.61303618020534" lon="11.346897785932903"><ele>682.0</ele><time>2026-03-27T19:44:07Z</time></trkpt><trkpt lat="43.612967593471126" lon="11.346952825049293"><ele>682.0</ele><time>2026-03-27T19:44:09Z</time></trkpt><trkpt lat="43.61290371284244" lon="11.347031685783241"><ele>682.0</ele><time>2026-03-27T19:44:11Z</time></trkpt><trkpt lat="43.61285058307655" lon="11.347166679196002"><ele>682.0</ele><time>2026-03-27T19:44:13Z</time></trkpt><trkpt lat="43.61282174367108" lon="11.347286215465783"><ele>682.0</ele><time>2026-03-27T19:44:15Z</time></trkpt><trkpt lat="43.61279004225657" lon="11.347432089602147"><ele>682.0</ele><time>2026-03-27T19:44:17Z</time></trkpt><trkpt lat="43.612748700226575" lon="11.347567945247143"><ele>681.8</ele><time>2026-03-27T19:44:19Z</time></trkpt><trkpt lat="43.61271087396962" lon="11.347703928754525"><ele>681.6</ele><time>2026-03-27T19:44:21Z</time></trkpt><trkpt lat="43.61272105108762" lon="11.3478296413981"><ele>681.4</ele><time>2026-03-27T19:44:23Z</time></trkpt><trkpt lat="43.61269947449876" lon="11.34797330359844"><ele>681.1999999999999</ele><time>2026-03-27T19:44:24.999Z</time></trkpt><trkpt lat="43.612700508728686" lon="11.348099412400158"><ele>681.0</ele><time>2026-03-27T19:44:26.999Z</time></trkpt><trkpt lat="43.612716815431284" lon="11.348246366130105"><ele>681.0</ele><time>2026-03-27T19:44:28.999Z</time></trkpt><trkpt lat="43.612743090023756" lon="11.348374848408694"><ele>681.0</ele><time>2026-03-27T19:44:30.999Z</time></trkpt><trkpt lat="43.6127587166486" lon="11.34845992772876"><ele>681.0</ele><time>2026-03-27T19:44:31.999Z</time></trkpt><trkpt lat="43.612744161613854" lon="11.348583531128941"><ele>681.0</ele><time>2026-03-27T19:44:33.999Z</time></trkpt><trkpt lat="43.612710697744205" lon="11.3487007826146"><ele>681.0</ele><time>2026-03-27T19:44:35.999Z</time></trkpt><trkpt lat="43.612699376961594" lon="11.3488046301166"><ele>681.0</ele><time>2026-03-27T19:44:37.999Z</time></trkpt><trkpt lat="43.61271430981603" lon="11.348937783174733"><ele>682.4</ele><time>2026-03-27T19:44:39.999Z</time></trkpt><trkpt lat="43.612676965215314" lon="11.349041454065583"><ele>683.8</ele><time>2026-03-27T19:44:41.999Z</time></trkpt><trkpt lat="43.612621731331956" lon="11.349148648312342"><ele>685.1999999999999</ele><time>2026-03-27T19:44:43.999Z</time></trkpt><trkpt lat="43.61256378545832" lon="11.349240769821593"><ele>686.5999999999999</ele><time>2026-03-27T19:44:45.999Z</time></trkpt><trkpt lat="43.612507748571986" lon="11.349346975625856"><ele>688.0</ele><time>2026-03-27T19:44:47.999Z</time></trkpt><trkpt lat="43.61243768188271" lon="11.349430217538698"><ele>688.0</ele><time>2026-03-27T19:44:49.999Z</time></trkpt><trkpt lat="43.61238434899907" lon="11.349525360586876"><ele>688.0</ele><time>2026-03-27T19:44:51.999Z</time></trkpt><trkpt lat="43.61233406571574" lon="11.349656951066752"><ele>688.0</ele><time>2026-03-27T19:44:53.999Z</time></trkpt><trkpt lat="43.61225556440765" lon="11.349667226140058"><ele>688.0</ele><time>2026-03-27T19:44:55.999Z</time></trkpt><trkpt lat="43.61218921453658" lon="11.34970943943138"><ele>688.0</ele><time>2026-03-27T19:44:57.999Z</time></trkpt><trkpt lat="43.612107985506285" lon="11.349757808879106"><ele>688.0</ele><time>2026-03-27T19:44:59.999Z</time></trkpt><trkpt lat="43.612004059962594" lon="11.349797484631678"><ele>689.5999999999999</ele><time>2026-03-27T19:45:01.999Z</time></trkpt><trkpt lat="43.6118948910838" lon="11.349820839797754"><ele>691.1999999999999</ele><time>2026-03-27T19:45:03.999Z</time></trkpt><trkpt lat="43.61179672814791" lon="11.349900078093448"><ele>692.8</ele><time>2026-03-27T19:45:06Z</time></trkpt><trkpt lat="43.611704848526024" lon="11.349971526679186"><ele>694.4</ele><time>2026-03-27T19:45:08Z</time></trkpt><trkpt lat="43.61160351567521" lon="11.350041933393378"><ele>696.0</ele><time>2026-03-27T19:45:10Z</time></trkpt><trkpt lat="43.61153782381886" lon="11.35010752499127"><ele>696.0</ele><time>2026-03-27T19:45:12Z</time></trkpt><trkpt lat="43.611478215233234" lon="11.35017511861932"><ele>696.0</ele><time>2026-03-27T19:45:14Z</time></trkpt><trkpt lat="43.61138580852511" lon="11.350204841915932"><ele>696.0</ele><time>2026-03-27T19:45:16Z</time></trkpt><trkpt lat="43.61130990720422" lon="11.350213969378935"><ele>696.0</ele><time>2026-03-27T19:45:18Z</time></trkpt><trkpt lat="43.61121119293792" lon="11.350209499558726"><ele>696.0</ele><time>2026-03-27T19:45:20Z</time></trkpt><trkpt lat="43.61110719322621" lon="11.350242452780302"><ele>694.4</ele><time>2026-03-27T19:45:22Z</time></trkpt><trkpt lat="43.61102728452571" lon="11.350255714363607"><ele>692.8</ele><time>2026-03-27T19:45:24Z</time></trkpt><trkpt lat="43.61093991405723" lon="11.350268366451592"><ele>691.1999999999999</ele><time>2026-03-27T19:45:26Z</time></trkpt><trkpt lat="43.61080201836725" lon="11.350285195551324"><ele>689.5999999999999</ele><time>2026-03-27T19:45:28Z</time></trkpt><trkpt lat="43.610696943264145" lon="11.350346530414699"><ele>688.0</ele><time>2026-03-27T19:45:30Z</time></trkpt><trkpt lat="43.61061040893031" lon="11.350405286276908"><ele>688.0</ele><time>2026-03-27T19:45:32Z</time></trkpt><trkpt lat="43.61049372618809" lon="11.350472957950538"><ele>688.0</ele><time>2026-03-27T19:45:34Z</time></trkpt><trkpt lat="43.61037810265904" lon="11.350489274119388"><ele>688.0</ele><time>2026-03-27T19:45:36Z</time></trkpt><trkpt lat="43.610288166634234" lon="11.350545389185088"><ele>688.0</ele><time>2026-03-27T19:45:38Z</time></trkpt><trkpt lat="43.610191145534955" lon="11.35061602484478"><ele>685.5</ele><time>2026-03-27T19:45:40Z</time></trkpt><trkpt lat="43.61011441403245" lon="11.350690198734743"><ele>683.0</ele><time>2026-03-27T19:45:42Z</time></trkpt><trkpt lat="43.61003283710248" lon="11.350791485622112"><ele>680.5</ele><time>2026-03-27T19:45:44Z</time></trkpt><trkpt lat="43.61000460394483" lon="11.35087975408577"><ele>678.0</ele><time>2026-03-27T19:45:46Z</time></trkpt><trkpt lat="43.61002812002086" lon="11.350988436351749"><ele>675.5</ele><time>2026-03-27T19:45:49Z</time></trkpt><trkpt lat="43.60998457610453" lon="11.351082772692758"><ele>673.0</ele><time>2026-03-27T19:45:52Z</time></trkpt><trkpt lat="43.60991464314728" lon="11.351032389782771"><ele>673.0</ele><time>2026-03-27T19:45:55Z</time></trkpt><trkpt lat="43.60984477338035" lon="11.351070339748249"><ele>673.0</ele><time>2026-03-27T19:45:59Z</time></trkpt><trkpt lat="43.60979467753818" lon="11.351172595998282"><ele>673.0</ele><time>2026-03-27T19:46:04Z</time></trkpt><trkpt lat="43.60973263769912" lon="11.351257834323253"><ele>673.0</ele><time>2026-03-27T19:46:06Z</time></trkpt><trkpt lat="43.60965728964246" lon="11.35134885424344"><ele>673.0</ele><time>2026-03-27T19:46:08Z</time></trkpt><trkpt lat="43.609611627404306" lon="11.351437178190368"><ele>673.0</ele><time>2026-03-27T19:46:10Z</time></trkpt><trkpt lat="43.60952021360809" lon="11.3515037263725"><ele>673.8333333333334</ele><time>2026-03-27T19:46:12Z</time></trkpt><trkpt lat="43.609441647962186" lon="11.35157701213411"><ele>674.6666666666667</ele><time>2026-03-27T19:46:13Z</time></trkpt><trkpt lat="43.60940140689736" lon="11.351646331833306"><ele>675.5</ele><time>2026-03-27T19:46:14Z</time></trkpt><trkpt lat="43.60932413178062" lon="11.351726397636757"><ele>676.3333333333334</ele><time>2026-03-27T19:46:16Z</time></trkpt><trkpt lat="43.609270229909086" lon="11.351821644868123"><ele>677.1666666666666</ele><time>2026-03-27T19:46:18Z</time></trkpt><trkpt lat="43.60927268196026" lon="11.351927334872677"><ele>678.0</ele><time>2026-03-27T19:48:02Z</time></trkpt><trkpt lat="43.60923278640165" lon="11.351995186639861"><ele>678.0</ele><time>2026-03-27T19:48:05Z</time></trkpt><trkpt lat="43.60915323349246" lon="11.351987228115105"><ele>678.0</ele><time>2026-03-27T19:48:22Z</time></trkpt><trkpt lat="43.60904828340517" lon="11.352007713084925"><ele>678.0</ele><time>2026-03-27T19:48:24.999Z</time></trkpt><trkpt lat="43.60896894415557" lon="11.352046401420692"><ele>678.0</ele><time>2026-03-27T19:48:26.999Z</time></trkpt><trkpt lat="43.60886544058632" lon="11.352055308486033"><ele>678.0</ele><time>2026-03-27T19:48:28.999Z</time></trkpt><trkpt lat="43.608752923786255" lon="11.352109864020468"><ele>678.0</ele><time>2026-03-27T19:48:30.999Z</time></trkpt><trkpt lat="43.60866711055705" lon="11.352165584991138"><ele>678.0</ele><time>2026-03-27T19:48:32.999Z</time></trkpt><trkpt lat="43.60862044911873" lon="11.352225516648542"><ele>678.0</ele><time>2026-03-27T19:48:33.999Z</time></trkpt><trkpt lat="43.608554285227285" lon="11.352285579207946"><ele>678.0</ele><time>2026-03-27T19:48:34.999Z</time></trkpt><trkpt lat="43.60849151231012" lon="11.352324448536146"><ele>678.0</ele><time>2026-03-27T19:48:35.999Z</time></trkpt><trkpt lat="43.60839272134816" lon="11.352316157306003"><ele>678.0</ele><time>2026-03-27T19:48:37.999Z</time></trkpt><trkpt lat="43.60831041804894" lon="11.352328308178354"><ele>677.6666666666666</ele><time>2026-03-27T19:48:39.999Z</time></trkpt><trkpt lat="43.60823448826879" lon="11.352399149890227"><ele>677.3333333333334</ele><time>2026-03-27T19:48:41.999Z</time></trkpt><trkpt lat="43.60816910498048" lon="11.352455861754505"><ele>677.0</ele><time>2026-03-27T19:48:43.999Z</time></trkpt><trkpt lat="43.60811496523692" lon="11.352544649253081"><ele>676.6666666666667</ele><time>2026-03-27T19:48:45.999Z</time></trkpt><trkpt lat="43.60804304444497" lon="11.35263174356704"><ele>676.3333333333334</ele><time>2026-03-27T19:48:47.999Z</time></trkpt><trkpt lat="43.60795376921678" lon="11.352627146548024"><ele>676.0</ele><time>2026-03-27T19:48:49.999Z</time></trkpt><trkpt lat="43.607878151032075" lon="11.352664949145176"><ele>674.3333333333334</ele><time>2026-03-27T19:48:51.999Z</time></trkpt><trkpt lat="43.60778991770277" lon="11.352690709362905"><ele>672.6666666666667</ele><time>2026-03-27T19:48:53.999Z</time></trkpt><trkpt lat="43.60770139622027" lon="11.352727543389486"><ele>671.0</ele><time>2026-03-27T19:48:55.999Z</time></trkpt><trkpt lat="43.60764320524284" lon="11.352823138777834"><ele>669.3333333333334</ele><time>2026-03-27T19:48:59.999Z</time></trkpt><trkpt lat="43.607591280580706" lon="11.352878958757104"><ele>667.6666666666666</ele><time>2026-03-27T19:49:02.999Z</time></trkpt><trkpt lat="43.60753441548156" lon="11.352919146637062"><ele>666.0</ele><time>2026-03-27T19:49:05.999Z</time></trkpt><trkpt lat="43.60746839887289" lon="11.353005954480443"><ele>665.1666666666666</ele><time>2026-03-27T19:49:08.999Z</time></trkpt><trkpt lat="43.60742862334791" lon="11.353074911290904"><ele>664.3333333333334</ele><time>2026-03-27T19:49:10.999Z</time></trkpt><trkpt lat="43.607389738542324" lon="11.353183128974088"><ele>663.5</ele><time>2026-03-27T19:49:12.999Z</time></trkpt><trkpt lat="43.60740531093848" lon="11.35327591370024"><ele>662.6666666666667</ele><time>2026-03-27T19:49:14.999Z</time></trkpt><trkpt lat="43.60745593915387" lon="11.353438382284375"><ele>661.8333333333334</ele><time>2026-03-27T19:49:17Z</time></trkpt><trkpt lat="43.60747915759971" lon="11.35355494977451"><ele>661.0</ele><time>2026-03-27T19:49:19Z</time></trkpt><trkpt lat="43.607552777279814" lon="11.353646681178144"><ele>661.0</ele><time>2026-03-27T19:49:21Z</time></trkpt><trkpt lat="43.607628346480986" lon="11.35374517535041"><ele>661.0</ele><time>2026-03-27T19:49:23Z</time></trkpt><trkpt lat="43.60770263717541" lon="11.353837550269036"><ele>661.0</ele><time>2026-03-27T19:49:26Z</time></trkpt><trkpt lat="43.607744163304424" lon="11.353938360490647"><ele>661.0</ele><time>2026-03-27T19:49:28Z</time></trkpt><trkpt lat="43.607739370118814" lon="11.354033905045256"><ele>661.0</ele><time>2026-03-27T19:49:30Z</time></trkpt><trkpt lat="43.60768561120536" lon="11.354126105689007"><ele>661.0</ele><time>2026-03-27T19:49:32Z</time></trkpt><trkpt lat="43.607631622842284" lon="11.354200969986854"><ele>659.1666666666667</ele><time>2026-03-27T19:49:34Z</time></trkpt><trkpt lat="43.60755160565171" lon="11.354249528819109"><ele>657.3333333333334</ele><time>2026-03-27T19:49:36Z</time></trkpt><trkpt lat="43.607494574210975" lon="11.354332775157822"><ele>655.5</ele><time>2026-03-27T19:49:38Z</time></trkpt><trkpt lat="43.60739762135484" lon="11.354331673606609"><ele>653.6666666666666</ele><time>2026-03-27T19:49:40Z</time></trkpt><trkpt lat="43.607304778311075" lon="11.354317851570217"><ele>651.8333333333333</ele><time>2026-03-27T19:49:42Z</time></trkpt><trkpt lat="43.607230133217804" lon="11.354364636236694"><ele>650.0</ele><time>2026-03-27T19:49:44Z</time></trkpt><trkpt lat="43.607197480239" lon="11.354440478146937"><ele>650.0</ele><time>2026-03-27T19:49:46Z</time></trkpt><trkpt lat="43.607109796237744" lon="11.354513705848916"><ele>650.0</ele><time>2026-03-27T19:49:49Z</time></trkpt><trkpt lat="43.60705474897624" lon="11.354572158378891"><ele>650.0</ele><time>2026-03-27T19:49:51Z</time></trkpt><trkpt lat="43.606992483790464" lon="11.354604941288882"><ele>650.0</ele><time>2026-03-27T19:49:53Z</time></trkpt><trkpt lat="43.60689692728735" lon="11.354626073945383"><ele>650.0</ele><time>2026-03-27T19:49:56Z</time></trkpt><trkpt lat="43.606814585221656" lon="11.354651080937769"><ele>650.0</ele><time>2026-03-27T19:49:59Z</time></trkpt><trkpt lat="43.606751034871664" lon="11.35464725346961"><ele>648.6666666666666</ele><time>2026-03-27T19:50:01Z</time></trkpt><trkpt lat="43.606681939219044" lon="11.354651816746669"><ele>647.3333333333333</ele><time>2026-03-27T19:50:03Z</time></trkpt><trkpt lat="43.60659389688842" lon="11.354665717266094"><ele>646.0</ele><time>2026-03-27T19:50:06Z</time></trkpt><trkpt lat="43.6065060829876" lon="11.354678688428814"><ele>644.6666666666666</ele><time>2026-03-27T19:50:08Z</time></trkpt><trkpt lat="43.60641218847298" lon="11.354676379686861"><ele>643.3333333333334</ele><time>2026-03-27T19:50:10Z</time></trkpt><trkpt lat="43.6063282264129" lon="11.354676381929908"><ele>642.0</ele><time>2026-03-27T19:50:12Z</time></trkpt><trkpt lat="43.60623697412058" lon="11.354702193122778"><ele>638.8333333333334</ele><time>2026-03-27T19:50:14Z</time></trkpt><trkpt lat="43.60613221015481" lon="11.354656015638865"><ele>635.6666666666666</ele><time>2026-03-27T19:50:16Z</time></trkpt><trkpt lat="43.60606147156282" lon="11.354617727208536"><ele>632.5</ele><time>2026-03-27T19:50:19Z</time></trkpt><trkpt lat="43.60600658903658" lon="11.354541333608333"><ele>629.3333333333333</ele><time>2026-03-27T19:50:21Z</time></trkpt><trkpt lat="43.605979736616256" lon="11.35441978537926"><ele>626.1666666666666</ele><time>2026-03-27T19:50:23.999Z</time></trkpt><trkpt lat="43.605922871410314" lon="11.354355885254758"><ele>623.0</ele><time>2026-03-27T19:50:27.999Z</time></trkpt><trkpt lat="43.60583689884599" lon="11.354374550641422"><ele>623.0</ele><time>2026-03-27T19:50:31.999Z</time></trkpt><trkpt lat="43.605752217952386" lon="11.354406269992952"><ele>623.0</ele><time>2026-03-27T19:50:34.999Z</time></trkpt><trkpt lat="43.60570006895752" lon="11.354458761184985"><ele>623.0</ele><time>2026-03-27T19:50:36.999Z</time></trkpt><trkpt lat="43.605635878508444" lon="11.354466850194148"><ele>623.0</ele><time>2026-03-27T19:50:38.999Z</time></trkpt><trkpt lat="43.60554471554139" lon="11.354469912281555"><ele>623.0</ele><time>2026-03-27T19:50:41.999Z</time></trkpt><trkpt lat="43.605425927595064" lon="11.354575083157654"><ele>623.0</ele><time>2026-03-27T19:50:43.999Z</time></trkpt><trkpt lat="43.60536136152376" lon="11.354628175660554"><ele>622.4</ele><time>2026-03-27T19:50:44.999Z</time></trkpt><trkpt lat="43.60528654101819" lon="11.354707226688578"><ele>621.8</ele><time>2026-03-27T19:50:46.999Z</time></trkpt><trkpt lat="43.605296594230715" lon="11.354845934423919"><ele>621.2</ele><time>2026-03-27T19:50:48.999Z</time></trkpt><trkpt lat="43.60534442997134" lon="11.354910677531581"><ele>620.6</ele><time>2026-03-27T19:50:49.999Z</time></trkpt><trkpt lat="43.60542188755034" lon="11.354979863666788"><ele>620.0</ele><time>2026-03-27T19:50:50.999Z</time></trkpt><trkpt lat="43.60550853521707" lon="11.355068653254687"><ele>620.0</ele><time>2026-03-27T19:50:51.999Z</time></trkpt><trkpt lat="43.605594971444546" lon="11.355172884108034"><ele>620.0</ele><time>2026-03-27T19:50:52.999Z</time></trkpt><trkpt lat="43.60566695643765" lon="11.355260664713338"><ele>620.0</ele><time>2026-03-27T19:50:53.999Z</time></trkpt><trkpt lat="43.60574405139241" lon="11.355327372172729"><ele>620.0</ele><time>2026-03-27T19:50:54.999Z</time></trkpt><trkpt lat="43.60582719738389" lon="11.355387590897921"><ele>620.0</ele><time>2026-03-27T19:50:55.999Z</time></trkpt><trkpt lat="43.60592222518585" lon="11.355454660907537"><ele>620.0</ele><time>2026-03-27T19:50:56.999Z</time></trkpt><trkpt lat="43.60603330029236" lon="11.355526420110747"><ele>620.0</ele><time>2026-03-27T19:50:57.999Z</time></trkpt><trkpt lat="43.606144032535866" lon="11.355601747106892"><ele>620.0</ele><time>2026-03-27T19:50:58.999Z</time></trkpt><trkpt lat="43.606238475594694" lon="11.355671197355287"><ele>620.0</ele><time>2026-03-27T19:50:59.999Z</time></trkpt><trkpt lat="43.606319899886905" lon="11.355742542923306"><ele>620.0</ele><time>2026-03-27T19:51:00.999Z</time></trkpt><trkpt lat="43.606389728751616" lon="11.355831307533235"><ele>618.2</ele><time>2026-03-27T19:51:01.999Z</time></trkpt><trkpt lat="43.60647192358084" lon="11.355891616813752"><ele>616.4</ele><time>2026-03-27T19:51:02.999Z</time></trkpt><trkpt lat="43.60654708935069" lon="11.355943498259059"><ele>614.6</ele><time>2026-03-27T19:51:03.999Z</time></trkpt><trkpt lat="43.60662641224808" lon="11.355997817299473"><ele>612.8</ele><time>2026-03-27T19:51:04.999Z</time></trkpt><trkpt lat="43.606712083160986" lon="11.356055335265792"><ele>611.0</ele><time>2026-03-27T19:51:05.999Z</time></trkpt><trkpt lat="43.60680077547394" lon="11.356093819943604"><ele>611.0</ele><time>2026-03-27T19:51:06.999Z</time></trkpt><trkpt lat="43.60686652922973" lon="11.356151273835776"><ele>611.0</ele><time>2026-03-27T19:51:07.999Z</time></trkpt><trkpt lat="43.60692140161516" lon="11.356222984341152"><ele>611.0</ele><time>2026-03-27T19:51:08.999Z</time></trkpt><trkpt lat="43.606951513829806" lon="11.356314107733427"><ele>611.0</ele><time>2026-03-27T19:51:09.999Z</time></trkpt><trkpt lat="43.606959855311494" lon="11.356416208334604"><ele>611.0</ele><time>2026-03-27T19:51:10.999Z</time></trkpt><trkpt lat="43.60694369606987" lon="11.356520212554885"><ele>611.0</ele><time>2026-03-27T19:51:11.999Z</time></trkpt><trkpt lat="43.60690270322274" lon="11.35662113550321"><ele>608.6666666666666</ele><time>2026-03-27T19:51:12.999Z</time></trkpt><trkpt lat="43.60682455029847" lon="11.356693615873954"><ele>606.3333333333333</ele><time>2026-03-27T19:51:13.999Z</time></trkpt><trkpt lat="43.60675849264422" lon="11.356759672556564"><ele>604.0</ele><time>2026-03-27T19:51:14.999Z</time></trkpt><trkpt lat="43.606684965741195" lon="11.356808876775029"><ele>601.6666666666666</ele><time>2026-03-27T19:51:15.999Z</time></trkpt><trkpt lat="43.60660725069492" lon="11.356862168584126"><ele>599.3333333333334</ele><time>2026-03-27T19:51:16.999Z</time></trkpt><trkpt lat="43.606527217623196" lon="11.356924961930533"><ele>597.0</ele><time>2026-03-27T19:51:17.999Z</time></trkpt><trkpt lat="43.606473629958806" lon="11.35701206275966"><ele>597.0</ele><time>2026-03-27T19:51:18.999Z</time></trkpt><trkpt lat="43.60640916243965" lon="11.357088109198488"><ele>597.0</ele><time>2026-03-27T19:51:19.999Z</time></trkpt><trkpt lat="43.60634170080669" lon="11.357175638694498"><ele>597.0</ele><time>2026-03-27T19:51:20.999Z</time></trkpt><trkpt lat="43.606273517724766" lon="11.35726639117392"><ele>597.0</ele><time>2026-03-27T19:51:22Z</time></trkpt><trkpt lat="43.60620702036162" lon="11.357370941858811"><ele>597.0</ele><time>2026-03-27T19:51:23Z</time></trkpt><trkpt lat="43.606143702050126" lon="11.357459634816108"><ele>594.8333333333334</ele><time>2026-03-27T19:51:24Z</time></trkpt><trkpt lat="43.60606967741387" lon="11.357529274699969"><ele>592.6666666666666</ele><time>2026-03-27T19:51:25Z</time></trkpt><trkpt lat="43.60601733077213" lon="11.35762101503729"><ele>590.5</ele><time>2026-03-27T19:51:26Z</time></trkpt><trkpt lat="43.60595832247618" lon="11.35770593521832"><ele>588.3333333333333</ele><time>2026-03-27T19:51:27Z</time></trkpt><trkpt lat="43.605905935560976" lon="11.35778850190468"><ele>586.1666666666666</ele><time>2026-03-27T19:51:28Z</time></trkpt><trkpt lat="43.605846610348785" lon="11.357866789554768"><ele>584.0</ele><time>2026-03-27T19:51:29Z</time></trkpt><trkpt lat="43.60576810395136" lon="11.357918532697132"><ele>584.0</ele><time>2026-03-27T19:51:30Z</time></trkpt><trkpt lat="43.605705610595045" lon="11.357988462763252"><ele>584.0</ele><time>2026-03-27T19:51:31Z</time></trkpt><trkpt lat="43.60562134269471" lon="11.358036437077585"><ele>584.0</ele><time>2026-03-27T19:51:32Z</time></trkpt><trkpt lat="43.60553335469685" lon="11.358089274964989"><ele>584.0</ele><time>2026-03-27T19:51:33Z</time></trkpt><trkpt lat="43.6054517476435" lon="11.358149665337988"><ele>584.0</ele><time>2026-03-27T19:51:34Z</time></trkpt><trkpt lat="43.6053708879082" lon="11.358206054820158"><ele>581.8333333333333</ele><time>2026-03-27T19:51:35Z</time></trkpt><trkpt lat="43.60528559412372" lon="11.358258001414415"><ele>579.6666666666666</ele><time>2026-03-27T19:51:36Z</time></trkpt><trkpt lat="43.60520584505849" lon="11.35831559616615"><ele>577.5</ele><time>2026-03-27T19:51:37Z</time></trkpt><trkpt lat="43.60513335421895" lon="11.358368399463455"><ele>575.3333333333334</ele><time>2026-03-27T19:51:38Z</time></trkpt><trkpt lat="43.60506433768054" lon="11.35839299861123"><ele>573.1666666666667</ele><time>2026-03-27T19:51:39Z</time></trkpt><trkpt lat="43.604990928225945" lon="11.358441871616746"><ele>571.0</ele><time>2026-03-27T19:51:41Z</time></trkpt><trkpt lat="43.60501811802522" lon="11.358595619601461"><ele>571.0</ele><time>2026-03-27T19:51:44Z</time></trkpt><trkpt lat="43.60503812873489" lon="11.35869327708231"><ele>571.0</ele><time>2026-03-27T19:51:47Z</time></trkpt><trkpt lat="43.60502325915455" lon="11.358797248537286"><ele>571.0</ele><time>2026-03-27T19:51:50Z</time></trkpt><trkpt lat="43.60480678470402" lon="11.358550180573314"><ele>571.0</ele><time>2026-03-27T19:51:52Z</time></trkpt><trkpt lat="43.60472538415603" lon="11.358585345796627"><ele>571.0</ele><time>2026-03-27T19:51:55Z</time></trkpt><trkpt lat="43.60463110301011" lon="11.358623926437701"><ele>571.0</ele><time>2026-03-27T19:51:57Z</time></trkpt><trkpt lat="43.60456962054986" lon="11.35864974189233"><ele>571.0</ele><time>2026-03-27T19:51:58Z</time></trkpt><trkpt lat="43.60450515320855" lon="11.358678683025538"><ele>571.0</ele><time>2026-03-27T19:51:59Z</time></trkpt><trkpt lat="43.604429303650384" lon="11.358710757808995"><ele>571.0</ele><time>2026-03-27T19:52:01Z</time></trkpt><trkpt lat="43.60435880355618" lon="11.35873775031931"><ele>571.0</ele><time>2026-03-27T19:52:03Z</time></trkpt><trkpt lat="43.604261216070775" lon="11.35877221264751"><ele>570.0</ele><time>2026-03-27T19:52:05Z</time></trkpt><trkpt lat="43.60414797455378" lon="11.358811616639924"><ele>569.0</ele><time>2026-03-27T19:52:07Z</time></trkpt><trkpt lat="43.60416276978591" lon="11.359236876865983"><ele>568.0</ele><time>2026-03-27T19:52:08Z</time></trkpt><trkpt lat="43.60411475366895" lon="11.359348209933783"><ele>568.0</ele><time>2026-03-27T19:52:10Z</time></trkpt><trkpt lat="43.60403666608855" lon="11.359423648639314"><ele>568.0</ele><time>2026-03-27T19:52:12Z</time></trkpt><trkpt lat="43.60396773244444" lon="11.359474404982711"><ele>568.0</ele><time>2026-03-27T19:52:14Z</time></trkpt><trkpt lat="43.60389741800242" lon="11.359516835468824"><ele>568.0</ele><time>2026-03-27T19:52:16Z</time></trkpt><trkpt lat="43.60383307240303" lon="11.359556790727204"><ele>568.0</ele><time>2026-03-27T19:52:18Z</time></trkpt><trkpt lat="43.60373904586435" lon="11.359579132878252"><ele>568.0</ele><time>2026-03-27T19:52:20Z</time></trkpt><trkpt lat="43.60363785949487" lon="11.359607130214293"><ele>567.4</ele><time>2026-03-27T19:52:22Z</time></trkpt><trkpt lat="43.60354544605097" lon="11.359660114508292"><ele>566.8</ele><time>2026-03-27T19:52:24Z</time></trkpt><trkpt lat="43.603477561439995" lon="11.359756068626755"><ele>566.2</ele><time>2026-03-27T19:52:26Z</time></trkpt><trkpt lat="43.60342422328704" lon="11.359852162190837"><ele>565.6</ele><time>2026-03-27T19:52:28Z</time></trkpt><trkpt lat="43.60333397828729" lon="11.359909504421795"><ele>565.0</ele><time>2026-03-27T19:52:30Z</time></trkpt><trkpt lat="43.60323144848369" lon="11.359944120753887"><ele>565.0</ele><time>2026-03-27T19:52:31.999Z</time></trkpt><trkpt lat="43.603139448281034" lon="11.360007985256795"><ele>565.0</ele><time>2026-03-27T19:52:33.999Z</time></trkpt><trkpt lat="43.60305601540835" lon="11.360050621832514"><ele>565.0</ele><time>2026-03-27T19:52:35.999Z</time></trkpt><trkpt lat="43.60297141742811" lon="11.36010882720371"><ele>565.0</ele><time>2026-03-27T19:52:37.999Z</time></trkpt><trkpt lat="43.60287685330046" lon="11.360175418657716"><ele>565.0</ele><time>2026-03-27T19:52:39.999Z</time></trkpt><trkpt lat="43.602821482897916" lon="11.360236047380514"><ele>564.6</ele><time>2026-03-27T19:52:41.999Z</time></trkpt><trkpt lat="43.60275249666555" lon="11.360300642418338"><ele>564.2</ele><time>2026-03-27T19:52:43.999Z</time></trkpt><trkpt lat="43.60265958569963" lon="11.360370800152566"><ele>563.8</ele><time>2026-03-27T19:52:45.999Z</time></trkpt><trkpt lat="43.60255685426482" lon="11.36044330395969"><ele>563.4</ele><time>2026-03-27T19:52:47.999Z</time></trkpt><trkpt lat="43.60246498421378" lon="11.36050867994265"><ele>563.0</ele><time>2026-03-27T19:52:49.999Z</time></trkpt><trkpt lat="43.602392885453874" lon="11.360562249282912"><ele>563.0</ele><time>2026-03-27T19:52:51.999Z</time></trkpt><trkpt lat="43.6023294024025" lon="11.360588608903026"><ele>563.0</ele><time>2026-03-27T19:52:53.999Z</time></trkpt><trkpt lat="43.602271221722326" lon="11.360661596834788"><ele>563.0</ele><time>2026-03-27T19:52:55.999Z</time></trkpt><trkpt lat="43.60221331796447" lon="11.36072647629847"><ele>563.0</ele><time>2026-03-27T19:52:57.999Z</time></trkpt><trkpt lat="43.60214887083928" lon="11.360756222536956"><ele>563.0</ele><time>2026-03-27T19:52:59.999Z</time></trkpt><trkpt lat="43.60208082138268" lon="11.360802894912656"><ele>563.0</ele><time>2026-03-27T19:53:01.999Z</time></trkpt><trkpt lat="43.601993886725694" lon="11.360860792107086"><ele>561.6666666666666</ele><time>2026-03-27T19:53:04.999Z</time></trkpt><trkpt lat="43.60192170635799" lon="11.36090934213587"><ele>560.3333333333333</ele><time>2026-03-27T19:53:06.999Z</time></trkpt><trkpt lat="43.60186009442964" lon="11.360945508159288"><ele>559.0</ele><time>2026-03-27T19:53:08.999Z</time></trkpt><trkpt lat="43.6017933074892" lon="11.36099400455519"><ele>557.6666666666666</ele><time>2026-03-27T19:53:10.999Z</time></trkpt><trkpt lat="43.60172492106993" lon="11.36103048570005"><ele>556.3333333333334</ele><time>2026-03-27T19:53:12.999Z</time></trkpt><trkpt lat="43.60165233490729" lon="11.361087184530392"><ele>555.0</ele><time>2026-03-27T19:53:14.999Z</time></trkpt><trkpt lat="43.601572805319805" lon="11.361152837019517"><ele>555.0000000000001</ele><time>2026-03-27T19:53:17.999Z</time></trkpt><trkpt lat="43.60151299179117" lon="11.361182914653611"><ele>555.0</ele><time>2026-03-27T19:53:19.999Z</time></trkpt><trkpt lat="43.60145545840495" lon="11.361252952783728"><ele>555.0</ele><time>2026-03-27T19:53:21.999Z</time></trkpt><trkpt lat="43.60139055113434" lon="11.361303167127915"><ele>555.0</ele><time>2026-03-27T19:53:23.999Z</time></trkpt><trkpt lat="43.60131916857584" lon="11.36135861586148"><ele>555.0</ele><time>2026-03-27T19:53:25.999Z</time></trkpt><trkpt lat="43.60125355843673" lon="11.361406139663172"><ele>555.0000000000001</ele><time>2026-03-27T19:53:28Z</time></trkpt><trkpt lat="43.60119542290562" lon="11.3614526270679"><ele>555.0</ele><time>2026-03-27T19:53:30Z</time></trkpt><trkpt lat="43.601134156707005" lon="11.361477662205552"><ele>552.5</ele><time>2026-03-27T19:53:32Z</time></trkpt><trkpt lat="43.6010657556447" lon="11.361541997106487"><ele>550.0</ele><time>2026-03-27T19:53:34Z</time></trkpt><trkpt lat="43.60099730499174" lon="11.361567369283812"><ele>547.5</ele><time>2026-03-27T19:53:36Z</time></trkpt><trkpt lat="43.6009277052559" lon="11.36157005008478"><ele>545.0</ele><time>2026-03-27T19:53:38Z</time></trkpt><trkpt lat="43.60083058528923" lon="11.361611436589847"><ele>542.5</ele><time>2026-03-27T19:53:40Z</time></trkpt><trkpt lat="43.60077173227367" lon="11.361678198736927"><ele>540.0</ele><time>2026-03-27T19:53:42Z</time></trkpt><trkpt lat="43.60069458923986" lon="11.36177545384917"><ele>540.0</ele><time>2026-03-27T19:53:44Z</time></trkpt><trkpt lat="43.60062387208742" lon="11.361820251920356"><ele>540.0</ele><time>2026-03-27T19:53:46Z</time></trkpt><trkpt lat="43.60054420675122" lon="11.36184400110891"><ele>540.0</ele><time>2026-03-27T19:53:48Z</time></trkpt><trkpt lat="43.60047291569317" lon="11.361892488701358"><ele>540.0</ele><time>2026-03-27T19:53:50Z</time></trkpt><trkpt lat="43.60038014354794" lon="11.361956669246652"><ele>540.0</ele><time>2026-03-27T19:53:52Z</time></trkpt><trkpt lat="43.6003154802947" lon="11.36200808724798"><ele>540.0</ele><time>2026-03-27T19:53:54Z</time></trkpt><trkpt lat="43.60023278491419" lon="11.36206842625693"><ele>539.6</ele><time>2026-03-27T19:53:57Z</time></trkpt><trkpt lat="43.60013831462552" lon="11.362117326794827"><ele>539.2</ele><time>2026-03-27T19:53:59Z</time></trkpt><trkpt lat="43.60008429360438" lon="11.362167551171622"><ele>538.8</ele><time>2026-03-27T19:54:00Z</time></trkpt><trkpt lat="43.60003057044837" lon="11.362258685741114"><ele>538.4</ele><time>2026-03-27T19:54:01Z</time></trkpt><trkpt lat="43.59996169566564" lon="11.362370651800484"><ele>538.0</ele><time>2026-03-27T19:54:02Z</time></trkpt><trkpt lat="43.59988742175508" lon="11.362475025261046"><ele>538.0</ele><time>2026-03-27T19:54:03Z</time></trkpt><trkpt lat="43.59982322967505" lon="11.362561728193189"><ele>538.0</ele><time>2026-03-27T19:54:04Z</time></trkpt><trkpt lat="43.599758204784415" lon="11.362650065721509"><ele>538.0</ele><time>2026-03-27T19:54:05Z</time></trkpt><trkpt lat="43.59970379375671" lon="11.362729373866085"><ele>538.0</ele><time>2026-03-27T19:54:06Z</time></trkpt><trkpt lat="43.599647534243616" lon="11.362810981602795"><ele>538.0</ele><time>2026-03-27T19:54:07Z</time></trkpt><trkpt lat="43.59959136746364" lon="11.362886736358048"><ele>538.0</ele><time>2026-03-27T19:54:08Z</time></trkpt><trkpt lat="43.59953781446558" lon="11.362968086793073"><ele>537.5</ele><time>2026-03-27T19:54:09Z</time></trkpt><trkpt lat="43.5994869370483" lon="11.363050319405083"><ele>537.0</ele><time>2026-03-27T19:54:10Z</time></trkpt><trkpt lat="43.59941541460399" lon="11.363093029168464"><ele>536.5</ele><time>2026-03-27T19:54:11Z</time></trkpt><trkpt lat="43.59935253403795" lon="11.363168322615492"><ele>536.0</ele><time>2026-03-27T19:54:12Z</time></trkpt><trkpt lat="43.59929884382322" lon="11.36325471396845"><ele>535.5</ele><time>2026-03-27T19:54:13Z</time></trkpt><trkpt lat="43.59923184382315" lon="11.363303328256066"><ele>535.0</ele><time>2026-03-27T19:54:14Z</time></trkpt><trkpt lat="43.599155727752816" lon="11.363325701261227"><ele>535.0</ele><time>2026-03-27T19:54:15Z</time></trkpt><trkpt lat="43.599087572328784" lon="11.363382713694907"><ele>535.0</ele><time>2026-03-27T19:54:16Z</time></trkpt><trkpt lat="43.59901063281964" lon="11.363410377790709"><ele>535.0</ele><time>2026-03-27T19:54:17Z</time></trkpt><trkpt lat="43.59892841218487" lon="11.363455923772367"><ele>535.0</ele><time>2026-03-27T19:54:18Z</time></trkpt><trkpt lat="43.59884668686895" lon="11.363497167657004"><ele>535.0</ele><time>2026-03-27T19:54:19Z</time></trkpt><trkpt lat="43.59877262672405" lon="11.363547627883893"><ele>535.0</ele><time>2026-03-27T19:54:20Z</time></trkpt><trkpt lat="43.59870016546594" lon="11.363589773910704"><ele>534.5</ele><time>2026-03-27T19:54:21Z</time></trkpt><trkpt lat="43.59862297467006" lon="11.363608139348056"><ele>534.0</ele><time>2026-03-27T19:54:22Z</time></trkpt><trkpt lat="43.59856008530818" lon="11.3636633868834"><ele>533.5</ele><time>2026-03-27T19:54:23Z</time></trkpt><trkpt lat="43.59848073159005" lon="11.363701426339269"><ele>533.0</ele><time>2026-03-27T19:54:24Z</time></trkpt><trkpt lat="43.5984066418922" lon="11.363724562916902"><ele>532.5</ele><time>2026-03-27T19:54:25Z</time></trkpt><trkpt lat="43.598309152033735" lon="11.36377405840805"><ele>532.0</ele><time>2026-03-27T19:54:27Z</time></trkpt><trkpt lat="43.598240353722915" lon="11.363797441371595"><ele>532.0</ele><time>2026-03-27T19:54:29Z</time></trkpt><trkpt lat="43.598176237058986" lon="11.363659798258544"><ele>532.0</ele><time>2026-03-27T19:54:31Z</time></trkpt><trkpt lat="43.598136655361344" lon="11.36355565610221"><ele>532.0</ele><time>2026-03-27T19:54:32Z</time></trkpt><trkpt lat="43.59809344709503" lon="11.363465477405455"><ele>532.0</ele><time>2026-03-27T19:54:33Z</time></trkpt><trkpt lat="43.598021691628446" lon="11.363356142304427"><ele>532.0</ele><time>2026-03-27T19:54:34Z</time></trkpt><trkpt lat="43.597947532413514" lon="11.363274574238757"><ele>532.0</ele><time>2026-03-27T19:54:35Z</time></trkpt><trkpt lat="43.59785535544383" lon="11.36321042933512"><ele>532.0</ele><time>2026-03-27T19:54:36Z</time></trkpt><trkpt lat="43.59775546394531" lon="11.363165411494894"><ele>532.0</ele><time>2026-03-27T19:54:37Z</time></trkpt><trkpt lat="43.59765261302802" lon="11.363131963143948"><ele>532.0</ele><time>2026-03-27T19:54:38Z</time></trkpt><trkpt lat="43.597544539508355" lon="11.36310331910824"><ele>532.0</ele><time>2026-03-27T19:54:39Z</time></trkpt><trkpt lat="43.5974377720946" lon="11.363076057732187"><ele>532.0</ele><time>2026-03-27T19:54:40Z</time></trkpt><trkpt lat="43.597341206698715" lon="11.363041343060306"><ele>532.0</ele><time>2026-03-27T19:54:41Z</time></trkpt><trkpt lat="43.59724871761387" lon="11.363007379058335"><ele>532.0</ele><time>2026-03-27T19:54:42Z</time></trkpt><trkpt lat="43.59715888682124" lon="11.362976876677381"><ele>532.0</ele><time>2026-03-27T19:54:43Z</time></trkpt><trkpt lat="43.597073933585385" lon="11.362943916518661"><ele>532.0</ele><time>2026-03-27T19:54:44Z</time></trkpt><trkpt lat="43.596990102366526" lon="11.36289060817673"><ele>530.8000000000001</ele><time>2026-03-27T19:54:44.999Z</time></trkpt><trkpt lat="43.59691634458156" lon="11.362820512125735"><ele>529.6</ele><time>2026-03-27T19:54:45.999Z</time></trkpt><trkpt lat="43.596858643675965" lon="11.362744913830076"><ele>528.4000000000001</ele><time>2026-03-27T19:54:46.999Z</time></trkpt><trkpt lat="43.59680534697906" lon="11.362666470196716"><ele>527.2</ele><time>2026-03-27T19:54:47.999Z</time></trkpt><trkpt lat="43.59673732427104" lon="11.362474762030425"><ele>526.0</ele><time>2026-03-27T19:54:48.999Z</time></trkpt><trkpt lat="43.59669140037838" lon="11.36234437814817"><ele>526.0</ele><time>2026-03-27T19:54:49.999Z</time></trkpt><trkpt lat="43.59662445940942" lon="11.362244382868125"><ele>526.0</ele><time>2026-03-27T19:54:50.999Z</time></trkpt><trkpt lat="43.59656030619434" lon="11.362161435400242"><ele>526.0</ele><time>2026-03-27T19:54:51.999Z</time></trkpt><trkpt lat="43.596475534350844" lon="11.36211454721176"><ele>526.0</ele><time>2026-03-27T19:54:52.999Z</time></trkpt><trkpt lat="43.596378775632644" lon="11.362112524983516"><ele>526.0</ele><time>2026-03-27T19:54:53.999Z</time></trkpt><trkpt lat="43.596282157763305" lon="11.36213036533313"><ele>525.4</ele><time>2026-03-27T19:54:54.999Z</time></trkpt><trkpt lat="43.596186256620605" lon="11.362148253791958"><ele>524.8</ele><time>2026-03-27T19:54:55.999Z</time></trkpt><trkpt lat="43.59608564434239" lon="11.362176045558595"><ele>524.1999999999999</ele><time>2026-03-27T19:54:56.999Z</time></trkpt><trkpt lat="43.59598933236197" lon="11.362212271462447"><ele>523.6</ele><time>2026-03-27T19:54:57.999Z</time></trkpt><trkpt lat="43.59589509717169" lon="11.362270329891942"><ele>523.0</ele><time>2026-03-27T19:54:58.999Z</time></trkpt><trkpt lat="43.59580919570252" lon="11.362344203299187"><ele>523.0</ele><time>2026-03-27T19:54:59.999Z</time></trkpt><trkpt lat="43.59573477726067" lon="11.362416525991854"><ele>523.0</ele><time>2026-03-27T19:55:00.999Z</time></trkpt><trkpt lat="43.595571630579876" lon="11.362548245356274"><ele>523.0</ele><time>2026-03-27T19:55:02.999Z</time></trkpt><trkpt lat="43.59548928831402" lon="11.362613382194716"><ele>523.0</ele><time>2026-03-27T19:55:03.999Z</time></trkpt><trkpt lat="43.5954029527982" lon="11.36268328201481"><ele>519.6</ele><time>2026-03-27T19:55:04.999Z</time></trkpt><trkpt lat="43.5953191453347" lon="11.362754856814693"><ele>516.1999999999999</ele><time>2026-03-27T19:55:05.999Z</time></trkpt><trkpt lat="43.59522469764122" lon="11.362809702677728"><ele>512.8</ele><time>2026-03-27T19:55:06.999Z</time></trkpt><trkpt lat="43.59512694773881" lon="11.362857941144743"><ele>509.4</ele><time>2026-03-27T19:55:07.999Z</time></trkpt><trkpt lat="43.59502734995657" lon="11.36290909339672"><ele>506.0</ele><time>2026-03-27T19:55:08.999Z</time></trkpt><trkpt lat="43.594932847493446" lon="11.36295624254183"><ele>510.4</ele><time>2026-03-27T19:55:09.999Z</time></trkpt><trkpt lat="43.594846126823974" lon="11.363032955646778"><ele>514.8</ele><time>2026-03-27T19:55:10.999Z</time></trkpt><trkpt lat="43.59476896483665" lon="11.363141757728165"><ele>519.1999999999999</ele><time>2026-03-27T19:55:11.999Z</time></trkpt><trkpt lat="43.594686769685204" lon="11.363234495481207"><ele>523.6</ele><time>2026-03-27T19:55:12.999Z</time></trkpt><trkpt lat="43.594618337434696" lon="11.363336634115463"><ele>528.0</ele><time>2026-03-27T19:55:13.999Z</time></trkpt><trkpt lat="43.59453037699414" lon="11.363408469548837"><ele>526.4</ele><time>2026-03-27T19:55:14.999Z</time></trkpt><trkpt lat="43.59442791930941" lon="11.36344401850444"><ele>524.8</ele><time>2026-03-27T19:55:15.999Z</time></trkpt><trkpt lat="43.59432853697568" lon="11.363482574433112"><ele>523.2</ele><time>2026-03-27T19:55:16.999Z</time></trkpt><trkpt lat="43.594235001406645" lon="11.3634871418701"><ele>521.6</ele><time>2026-03-27T19:55:17.999Z</time></trkpt><trkpt lat="43.59413835722722" lon="11.363471966174354"><ele>520.0</ele><time>2026-03-27T19:55:18.999Z</time></trkpt><trkpt lat="43.5940417351998" lon="11.36342333820683"><ele>520.0</ele><time>2026-03-27T19:55:19.999Z</time></trkpt><trkpt lat="43.59394198035931" lon="11.363372268549416"><ele>520.0</ele><time>2026-03-27T19:55:20.999Z</time></trkpt><trkpt lat="43.593843798463176" lon="11.363322004191977"><ele>520.0</ele><time>2026-03-27T19:55:21.999Z</time></trkpt><trkpt lat="43.59374468527189" lon="11.363273672332266"><ele>520.0</ele><time>2026-03-27T19:55:22.999Z</time></trkpt><trkpt lat="43.59363992534787" lon="11.363246997182955"><ele>520.0</ele><time>2026-03-27T19:55:23.999Z</time></trkpt><trkpt lat="43.593538296026075" lon="11.36321562527655"><ele>527.0</ele><time>2026-03-27T19:55:24.999Z</time></trkpt></trkseg></trk></gpx>